<?xml version="1.0" encoding="UTF-8" standalone="no" ?>
<gpx xmlns="http://www.topografix.com/GPX/1/1" creator="CompeGPS" version="1.1" xmlns:xsi="http://www.w3.org/2001/XMLSchema-instance" xsi:schemaLocation="http://www.topografix.com/GPX/1/1 http://www.topografix.com/GPX/1/1/gpx.xsd http://www.garmin.com/xmlschemas/GpxExtensions/v3 http://www.garmin.com/xmlschemas/GpxExtensionsv3.xsd http://www.garmin.com/xmlschemas/TrackPointExtension/v1 http://www.garmin.com/xmlschemas/TrackPointExtensionv1.xsd" xmlns:gpxtpx="http://www.garmin.com/xmlschemas/TrackPointExtension/v1">
  <metadata>
    <link href="http://www.compegps.com">
      <text>CompeGPS TEAM, SL</text>
    </link>
    <time>2014-03-25T17:42:56Z</time>
    <bounds maxlat="43.488639" maxlon="1.599447" minlat="43.471422" minlon="1.570172"/>
  </metadata>
<wpt lat="43.488630" lon="1.570244">
  <ele>142</ele>
  <name>Montlaur</name>
</wpt>
<wpt lat="43.485454" lon="1.575542">
  <ele>207</ele>
  <name>Nauge</name>
</wpt>
<wpt lat="43.482526" lon="1.576732">
  <ele>210</ele>
  <name>Ancien moulin</name>
</wpt>
<wpt lat="43.481969" lon="1.588423">
  <ele>171</ele>
  <name>Faouria</name>
</wpt>
<wpt lat="43.475999" lon="1.599447">
  <ele>195</ele>
  <name>Philipou</name>
</wpt>
<wpt lat="43.473169" lon="1.589574">
  <ele>191</ele>
  <name>Poste electrique</name>
</wpt>
<wpt lat="43.474386" lon="1.581865">
  <ele>170</ele>
  <name>Chapelle</name>
</wpt>
<trk>
    <name>montlaur</name>
    <trkseg>
      <trkpt lat="43.488630" lon="1.570244">
        <ele>165.9</ele>
        <time>2014-03-24T07:58:26Z</time>
        <name>Montlaur</name>
      </trkpt>
      <trkpt lat="43.488517" lon="1.570241">
        <ele>165.9</ele>
        <time>2014-03-24T08:00:11Z</time>
      </trkpt>
      <trkpt lat="43.488419" lon="1.570177">
        <ele>166.3</ele>
        <time>2014-03-24T08:00:24Z</time>
      </trkpt>
      <trkpt lat="43.488366" lon="1.570184">
        <ele>166.6</ele>
        <time>2014-03-24T08:01:41Z</time>
      </trkpt>
      <trkpt lat="43.488368" lon="1.570311">
        <ele>166.9</ele>
        <time>2014-03-24T08:01:56Z</time>
      </trkpt>
      <trkpt lat="43.488374" lon="1.570446">
        <ele>167.3</ele>
        <time>2014-03-24T08:02:06Z</time>
      </trkpt>
      <trkpt lat="43.488339" lon="1.570578">
        <ele>167.7</ele>
        <time>2014-03-24T08:02:18Z</time>
      </trkpt>
      <trkpt lat="43.488263" lon="1.570635">
        <ele>168.2</ele>
        <time>2014-03-24T08:03:02Z</time>
      </trkpt>
      <trkpt lat="43.488254" lon="1.570761">
        <ele>168.2</ele>
        <time>2014-03-24T08:03:08Z</time>
      </trkpt>
      <trkpt lat="43.488211" lon="1.570892">
        <ele>168.6</ele>
        <time>2014-03-24T08:03:17Z</time>
      </trkpt>
      <trkpt lat="43.488169" lon="1.571011">
        <ele>169.2</ele>
        <time>2014-03-24T08:03:25Z</time>
      </trkpt>
      <trkpt lat="43.488124" lon="1.571120">
        <ele>170.4</ele>
        <time>2014-03-24T08:03:33Z</time>
      </trkpt>
      <trkpt lat="43.488019" lon="1.571174">
        <ele>170.6</ele>
        <time>2014-03-24T08:03:41Z</time>
      </trkpt>
      <trkpt lat="43.487912" lon="1.571138">
        <ele>171.2</ele>
        <time>2014-03-24T08:03:49Z</time>
      </trkpt>
      <trkpt lat="43.487807" lon="1.571139">
        <ele>171.5</ele>
        <time>2014-03-24T08:03:57Z</time>
      </trkpt>
      <trkpt lat="43.487717" lon="1.571211">
        <ele>171.4</ele>
        <time>2014-03-24T08:04:05Z</time>
      </trkpt>
      <trkpt lat="43.487622" lon="1.571291">
        <ele>171.9</ele>
        <time>2014-03-24T08:04:13Z</time>
      </trkpt>
      <trkpt lat="43.487494" lon="1.571315">
        <ele>172.5</ele>
        <time>2014-03-24T08:04:23Z</time>
      </trkpt>
      <trkpt lat="43.487301" lon="1.571260">
        <ele>172.7</ele>
        <time>2014-03-24T08:04:33Z</time>
      </trkpt>
      <trkpt lat="43.487207" lon="1.571305">
        <ele>173.1</ele>
        <time>2014-03-24T08:05:27Z</time>
      </trkpt>
      <trkpt lat="43.487144" lon="1.571419">
        <ele>173.7</ele>
        <time>2014-03-24T08:05:36Z</time>
      </trkpt>
      <trkpt lat="43.487075" lon="1.571521">
        <ele>174.5</ele>
        <time>2014-03-24T08:05:45Z</time>
      </trkpt>
      <trkpt lat="43.486994" lon="1.571618">
        <ele>175.4</ele>
        <time>2014-03-24T08:05:53Z</time>
      </trkpt>
      <trkpt lat="43.486908" lon="1.571692">
        <ele>175.9</ele>
        <time>2014-03-24T08:06:00Z</time>
      </trkpt>
      <trkpt lat="43.486840" lon="1.571774">
        <ele>176.7</ele>
        <time>2014-03-24T08:06:09Z</time>
      </trkpt>
      <trkpt lat="43.486746" lon="1.571861">
        <ele>177.6</ele>
        <time>2014-03-24T08:06:19Z</time>
      </trkpt>
      <trkpt lat="43.486647" lon="1.571946">
        <ele>178.1</ele>
        <time>2014-03-24T08:06:30Z</time>
      </trkpt>
      <trkpt lat="43.486544" lon="1.572045">
        <ele>179.8</ele>
        <time>2014-03-24T08:06:42Z</time>
      </trkpt>
      <trkpt lat="43.486451" lon="1.572165">
        <ele>181.5</ele>
        <time>2014-03-24T08:06:52Z</time>
      </trkpt>
      <trkpt lat="43.486370" lon="1.572272">
        <ele>183.2</ele>
        <time>2014-03-24T08:07:04Z</time>
      </trkpt>
      <trkpt lat="43.486283" lon="1.572378">
        <ele>184.8</ele>
        <time>2014-03-24T08:07:13Z</time>
      </trkpt>
      <trkpt lat="43.486200" lon="1.572483">
        <ele>185.8</ele>
        <time>2014-03-24T08:07:23Z</time>
      </trkpt>
      <trkpt lat="43.486129" lon="1.572580">
        <ele>186.8</ele>
        <time>2014-03-24T08:07:32Z</time>
      </trkpt>
      <trkpt lat="43.486060" lon="1.572680">
        <ele>187.6</ele>
        <time>2014-03-24T08:07:41Z</time>
      </trkpt>
      <trkpt lat="43.485991" lon="1.572787">
        <ele>188.4</ele>
        <time>2014-03-24T08:07:51Z</time>
      </trkpt>
      <trkpt lat="43.485930" lon="1.572905">
        <ele>189.6</ele>
        <time>2014-03-24T08:08:04Z</time>
      </trkpt>
      <trkpt lat="43.485849" lon="1.573019">
        <ele>191.1</ele>
        <time>2014-03-24T08:08:15Z</time>
      </trkpt>
      <trkpt lat="43.485762" lon="1.573146">
        <ele>192.2</ele>
        <time>2014-03-24T08:08:25Z</time>
      </trkpt>
      <trkpt lat="43.485661" lon="1.573251">
        <ele>193.7</ele>
        <time>2014-03-24T08:08:35Z</time>
      </trkpt>
      <trkpt lat="43.485585" lon="1.573348">
        <ele>195.1</ele>
        <time>2014-03-24T08:08:44Z</time>
      </trkpt>
      <trkpt lat="43.485508" lon="1.573430">
        <ele>196.7</ele>
        <time>2014-03-24T08:08:52Z</time>
      </trkpt>
      <trkpt lat="43.485435" lon="1.573516">
        <ele>198.2</ele>
        <time>2014-03-24T08:09:01Z</time>
      </trkpt>
      <trkpt lat="43.485366" lon="1.573620">
        <ele>199.0</ele>
        <time>2014-03-24T08:09:10Z</time>
      </trkpt>
      <trkpt lat="43.485294" lon="1.573704">
        <ele>200.3</ele>
        <time>2014-03-24T08:09:20Z</time>
      </trkpt>
      <trkpt lat="43.485229" lon="1.573808">
        <ele>201.7</ele>
        <time>2014-03-24T08:09:29Z</time>
      </trkpt>
      <trkpt lat="43.485155" lon="1.573902">
        <ele>202.4</ele>
        <time>2014-03-24T08:09:38Z</time>
      </trkpt>
      <trkpt lat="43.485076" lon="1.574006">
        <ele>202.9</ele>
        <time>2014-03-24T08:09:48Z</time>
      </trkpt>
      <trkpt lat="43.485015" lon="1.574120">
        <ele>203.8</ele>
        <time>2014-03-24T08:09:58Z</time>
      </trkpt>
      <trkpt lat="43.485002" lon="1.574311">
        <ele>204.7</ele>
        <time>2014-03-24T08:10:09Z</time>
      </trkpt>
      <trkpt lat="43.485041" lon="1.574456">
        <ele>206.0</ele>
        <time>2014-03-24T08:10:19Z</time>
      </trkpt>
      <trkpt lat="43.485050" lon="1.574591">
        <ele>206.9</ele>
        <time>2014-03-24T08:10:28Z</time>
      </trkpt>
      <trkpt lat="43.485052" lon="1.574740">
        <ele>208.3</ele>
        <time>2014-03-24T08:10:38Z</time>
      </trkpt>
      <trkpt lat="43.485037" lon="1.574886">
        <ele>209.8</ele>
        <time>2014-03-24T08:10:50Z</time>
      </trkpt>
      <trkpt lat="43.485079" lon="1.575017">
        <ele>210.4</ele>
        <time>2014-03-24T08:11:00Z</time>
      </trkpt>
      <trkpt lat="43.485163" lon="1.575140">
        <ele>210.6</ele>
        <time>2014-03-24T08:11:11Z</time>
      </trkpt>
      <trkpt lat="43.485240" lon="1.575242">
        <ele>210.2</ele>
        <time>2014-03-24T08:11:21Z</time>
      </trkpt>
      <trkpt lat="43.485310" lon="1.575345">
        <ele>209.6</ele>
        <time>2014-03-24T08:11:32Z</time>
      </trkpt>
      <trkpt lat="43.485386" lon="1.575447">
        <ele>208.7</ele>
        <time>2014-03-24T08:11:42Z</time>
      </trkpt>
      <trkpt lat="43.485454" lon="1.575542">
        <ele>207.5</ele>
        <time>2014-03-24T08:11:53Z</time>
        <name>Nauge</name>
      </trkpt>
      <trkpt lat="43.485430" lon="1.575691">
        <ele>207.6</ele>
        <time>2014-03-24T08:12:04Z</time>
      </trkpt>
      <trkpt lat="43.485426" lon="1.575863">
        <ele>208.2</ele>
        <time>2014-03-24T08:12:15Z</time>
      </trkpt>
      <trkpt lat="43.485406" lon="1.576014">
        <ele>209.1</ele>
        <time>2014-03-24T08:12:27Z</time>
      </trkpt>
      <trkpt lat="43.485372" lon="1.576166">
        <ele>209.7</ele>
        <time>2014-03-24T08:12:38Z</time>
      </trkpt>
      <trkpt lat="43.485340" lon="1.576372">
        <ele>210.5</ele>
        <time>2014-03-24T08:12:49Z</time>
      </trkpt>
      <trkpt lat="43.485309" lon="1.576526">
        <ele>211.8</ele>
        <time>2014-03-24T08:13:01Z</time>
      </trkpt>
      <trkpt lat="43.485287" lon="1.576675">
        <ele>212.4</ele>
        <time>2014-03-24T08:13:11Z</time>
      </trkpt>
      <trkpt lat="43.485251" lon="1.576864">
        <ele>213.2</ele>
        <time>2014-03-24T08:13:21Z</time>
      </trkpt>
      <trkpt lat="43.485223" lon="1.577025">
        <ele>214.1</ele>
        <time>2014-03-24T08:13:32Z</time>
      </trkpt>
      <trkpt lat="43.485201" lon="1.577182">
        <ele>214.8</ele>
        <time>2014-03-24T08:13:42Z</time>
      </trkpt>
      <trkpt lat="43.485162" lon="1.577350">
        <ele>215.7</ele>
        <time>2014-03-24T08:13:53Z</time>
      </trkpt>
      <trkpt lat="43.485142" lon="1.577510">
        <ele>216.4</ele>
        <time>2014-03-24T08:14:03Z</time>
      </trkpt>
      <trkpt lat="43.485073" lon="1.577668">
        <ele>217.1</ele>
        <time>2014-03-24T08:14:13Z</time>
      </trkpt>
      <trkpt lat="43.485020" lon="1.577806">
        <ele>217.8</ele>
        <time>2014-03-24T08:14:22Z</time>
      </trkpt>
      <trkpt lat="43.484958" lon="1.577913">
        <ele>218.2</ele>
        <time>2014-03-24T08:14:30Z</time>
      </trkpt>
      <trkpt lat="43.484887" lon="1.577991">
        <ele>219.2</ele>
        <time>2014-03-24T08:14:39Z</time>
      </trkpt>
      <trkpt lat="43.484866" lon="1.578184">
        <ele>219.9</ele>
        <time>2014-03-24T08:19:36Z</time>
      </trkpt>
      <trkpt lat="43.484868" lon="1.578307">
        <ele>219.4</ele>
        <time>2014-03-24T08:19:44Z</time>
      </trkpt>
      <trkpt lat="43.484876" lon="1.578434">
        <ele>218.4</ele>
        <time>2014-03-24T08:19:53Z</time>
      </trkpt>
      <trkpt lat="43.484859" lon="1.578577">
        <ele>217.6</ele>
        <time>2014-03-24T08:20:01Z</time>
      </trkpt>
      <trkpt lat="43.484859" lon="1.578734">
        <ele>217.1</ele>
        <time>2014-03-24T08:20:09Z</time>
      </trkpt>
      <trkpt lat="43.484846" lon="1.578866">
        <ele>216.4</ele>
        <time>2014-03-24T08:20:17Z</time>
      </trkpt>
      <trkpt lat="43.484796" lon="1.578972">
        <ele>215.9</ele>
        <time>2014-03-24T08:20:24Z</time>
      </trkpt>
      <trkpt lat="43.484762" lon="1.579089">
        <ele>215.5</ele>
        <time>2014-03-24T08:20:31Z</time>
      </trkpt>
      <trkpt lat="43.484719" lon="1.579211">
        <ele>213.7</ele>
        <time>2014-03-24T08:21:19Z</time>
      </trkpt>
      <trkpt lat="43.484677" lon="1.579335">
        <ele>213.4</ele>
        <time>2014-03-24T08:21:27Z</time>
      </trkpt>
      <trkpt lat="43.484638" lon="1.579458">
        <ele>212.9</ele>
        <time>2014-03-24T08:21:35Z</time>
      </trkpt>
      <trkpt lat="43.484588" lon="1.579579">
        <ele>212.4</ele>
        <time>2014-03-24T08:21:43Z</time>
      </trkpt>
      <trkpt lat="43.484544" lon="1.579693">
        <ele>211.9</ele>
        <time>2014-03-24T08:21:51Z</time>
      </trkpt>
      <trkpt lat="43.484488" lon="1.579812">
        <ele>211.3</ele>
        <time>2014-03-24T08:21:58Z</time>
      </trkpt>
      <trkpt lat="43.484441" lon="1.579914">
        <ele>210.7</ele>
        <time>2014-03-24T08:22:05Z</time>
      </trkpt>
      <trkpt lat="43.484417" lon="1.580053">
        <ele>210.1</ele>
        <time>2014-03-24T08:22:13Z</time>
      </trkpt>
      <trkpt lat="43.484413" lon="1.580191">
        <ele>209.2</ele>
        <time>2014-03-24T08:22:21Z</time>
      </trkpt>
      <trkpt lat="43.484431" lon="1.580328">
        <ele>208.1</ele>
        <time>2014-03-24T08:22:28Z</time>
      </trkpt>
      <trkpt lat="43.484455" lon="1.580469">
        <ele>207.0</ele>
        <time>2014-03-24T08:22:37Z</time>
      </trkpt>
      <trkpt lat="43.484468" lon="1.580598">
        <ele>205.9</ele>
        <time>2014-03-24T08:22:43Z</time>
      </trkpt>
      <trkpt lat="43.484508" lon="1.580745">
        <ele>204.7</ele>
        <time>2014-03-24T08:22:52Z</time>
      </trkpt>
      <trkpt lat="43.484524" lon="1.580892">
        <ele>203.6</ele>
        <time>2014-03-24T08:22:59Z</time>
      </trkpt>
      <trkpt lat="43.484539" lon="1.581016">
        <ele>202.5</ele>
        <time>2014-03-24T08:23:06Z</time>
      </trkpt>
      <trkpt lat="43.484554" lon="1.581158">
        <ele>201.1</ele>
        <time>2014-03-24T08:23:15Z</time>
      </trkpt>
      <trkpt lat="43.484591" lon="1.581288">
        <ele>200.1</ele>
        <time>2014-03-24T08:23:22Z</time>
      </trkpt>
      <trkpt lat="43.484620" lon="1.581427">
        <ele>199.1</ele>
        <time>2014-03-24T08:23:30Z</time>
      </trkpt>
      <trkpt lat="43.484661" lon="1.581561">
        <ele>198.4</ele>
        <time>2014-03-24T08:23:39Z</time>
      </trkpt>
      <trkpt lat="43.484706" lon="1.581684">
        <ele>197.8</ele>
        <time>2014-03-24T08:23:47Z</time>
      </trkpt>
      <trkpt lat="43.484762" lon="1.581806">
        <ele>196.8</ele>
        <time>2014-03-24T08:23:56Z</time>
      </trkpt>
      <trkpt lat="43.484819" lon="1.581915">
        <ele>196.2</ele>
        <time>2014-03-24T08:24:02Z</time>
      </trkpt>
      <trkpt lat="43.484855" lon="1.582027">
        <ele>195.3</ele>
        <time>2014-03-24T08:24:11Z</time>
      </trkpt>
      <trkpt lat="43.484819" lon="1.582154">
        <ele>194.9</ele>
        <time>2014-03-24T08:24:18Z</time>
      </trkpt>
      <trkpt lat="43.484740" lon="1.582257">
        <ele>194.2</ele>
        <time>2014-03-24T08:24:28Z</time>
      </trkpt>
      <trkpt lat="43.484678" lon="1.582346">
        <ele>193.8</ele>
        <time>2014-03-24T08:24:36Z</time>
      </trkpt>
      <trkpt lat="43.484601" lon="1.582436">
        <ele>193.1</ele>
        <time>2014-03-24T08:24:45Z</time>
      </trkpt>
      <trkpt lat="43.484513" lon="1.582513">
        <ele>192.2</ele>
        <time>2014-03-24T08:24:54Z</time>
      </trkpt>
      <trkpt lat="43.484435" lon="1.582599">
        <ele>191.5</ele>
        <time>2014-03-24T08:25:02Z</time>
      </trkpt>
      <trkpt lat="43.484362" lon="1.582671">
        <ele>190.7</ele>
        <time>2014-03-24T08:25:11Z</time>
      </trkpt>
      <trkpt lat="43.484310" lon="1.582793">
        <ele>190.3</ele>
        <time>2014-03-24T08:25:19Z</time>
      </trkpt>
      <trkpt lat="43.484298" lon="1.582929">
        <ele>189.4</ele>
        <time>2014-03-24T08:25:27Z</time>
      </trkpt>
      <trkpt lat="43.484299" lon="1.583085">
        <ele>188.7</ele>
        <time>2014-03-24T08:25:37Z</time>
      </trkpt>
      <trkpt lat="43.484316" lon="1.583219">
        <ele>188.1</ele>
        <time>2014-03-24T08:25:45Z</time>
      </trkpt>
      <trkpt lat="43.484333" lon="1.583366">
        <ele>187.7</ele>
        <time>2014-03-24T08:25:55Z</time>
      </trkpt>
      <trkpt lat="43.484369" lon="1.583515">
        <ele>186.2</ele>
        <time>2014-03-24T08:26:06Z</time>
      </trkpt>
      <trkpt lat="43.484389" lon="1.583661">
        <ele>184.9</ele>
        <time>2014-03-24T08:26:16Z</time>
      </trkpt>
      <trkpt lat="43.484402" lon="1.583829">
        <ele>183.4</ele>
        <time>2014-03-24T08:26:26Z</time>
      </trkpt>
      <trkpt lat="43.484385" lon="1.583986">
        <ele>181.6</ele>
        <time>2014-03-24T08:26:35Z</time>
      </trkpt>
      <trkpt lat="43.484328" lon="1.584113">
        <ele>180.2</ele>
        <time>2014-03-24T08:26:44Z</time>
      </trkpt>
      <trkpt lat="43.484267" lon="1.584215">
        <ele>178.9</ele>
        <time>2014-03-24T08:26:53Z</time>
      </trkpt>
      <trkpt lat="43.484193" lon="1.584314">
        <ele>177.3</ele>
        <time>2014-03-24T08:27:01Z</time>
      </trkpt>
      <trkpt lat="43.484126" lon="1.584416">
        <ele>176.2</ele>
        <time>2014-03-24T08:27:10Z</time>
      </trkpt>
      <trkpt lat="43.484047" lon="1.584513">
        <ele>174.4</ele>
        <time>2014-03-24T08:27:20Z</time>
      </trkpt>
      <trkpt lat="43.483980" lon="1.584604">
        <ele>172.9</ele>
        <time>2014-03-24T08:27:29Z</time>
      </trkpt>
      <trkpt lat="43.483902" lon="1.584703">
        <ele>172.0</ele>
        <time>2014-03-24T08:27:38Z</time>
      </trkpt>
      <trkpt lat="43.483822" lon="1.584796">
        <ele>170.9</ele>
        <time>2014-03-24T08:27:47Z</time>
      </trkpt>
      <trkpt lat="43.483727" lon="1.584912">
        <ele>170.0</ele>
        <time>2014-03-24T08:28:09Z</time>
      </trkpt>
      <trkpt lat="43.483655" lon="1.585020">
        <ele>169.4</ele>
        <time>2014-03-24T08:28:18Z</time>
      </trkpt>
      <trkpt lat="43.483589" lon="1.585127">
        <ele>168.6</ele>
        <time>2014-03-24T08:28:27Z</time>
      </trkpt>
      <trkpt lat="43.483518" lon="1.585217">
        <ele>168.2</ele>
        <time>2014-03-24T08:28:35Z</time>
      </trkpt>
      <trkpt lat="43.483447" lon="1.585305">
        <ele>167.5</ele>
        <time>2014-03-24T08:28:42Z</time>
      </trkpt>
      <trkpt lat="43.483375" lon="1.585399">
        <ele>166.8</ele>
        <time>2014-03-24T08:28:50Z</time>
      </trkpt>
      <trkpt lat="43.483302" lon="1.585488">
        <ele>166.2</ele>
        <time>2014-03-24T08:28:57Z</time>
      </trkpt>
      <trkpt lat="43.483225" lon="1.585577">
        <ele>165.2</ele>
        <time>2014-03-24T08:29:06Z</time>
      </trkpt>
      <trkpt lat="43.483170" lon="1.585663">
        <ele>164.7</ele>
        <time>2014-03-24T08:29:14Z</time>
      </trkpt>
      <trkpt lat="43.483084" lon="1.585742">
        <ele>163.5</ele>
        <time>2014-03-24T08:29:26Z</time>
      </trkpt>
      <trkpt lat="43.483032" lon="1.585888">
        <ele>163.1</ele>
        <time>2014-03-24T08:29:36Z</time>
      </trkpt>
      <trkpt lat="43.482974" lon="1.586017">
        <ele>163.3</ele>
        <time>2014-03-24T08:29:45Z</time>
      </trkpt>
      <trkpt lat="43.482930" lon="1.586135">
        <ele>163.8</ele>
        <time>2014-03-24T08:29:53Z</time>
      </trkpt>
      <trkpt lat="43.482870" lon="1.586243">
        <ele>164.8</ele>
        <time>2014-03-24T08:30:02Z</time>
      </trkpt>
      <trkpt lat="43.482811" lon="1.586362">
        <ele>165.2</ele>
        <time>2014-03-24T08:30:11Z</time>
      </trkpt>
      <trkpt lat="43.482775" lon="1.586487">
        <ele>165.1</ele>
        <time>2014-03-24T08:30:19Z</time>
      </trkpt>
      <trkpt lat="43.482728" lon="1.586596">
        <ele>165.5</ele>
        <time>2014-03-24T08:30:27Z</time>
      </trkpt>
      <trkpt lat="43.482676" lon="1.586696">
        <ele>165.9</ele>
        <time>2014-03-24T08:30:35Z</time>
      </trkpt>
      <trkpt lat="43.482626" lon="1.586811">
        <ele>166.0</ele>
        <time>2014-03-24T08:30:43Z</time>
      </trkpt>
      <trkpt lat="43.482573" lon="1.586931">
        <ele>166.3</ele>
        <time>2014-03-24T08:30:51Z</time>
      </trkpt>
      <trkpt lat="43.482524" lon="1.587055">
        <ele>166.7</ele>
        <time>2014-03-24T08:30:59Z</time>
      </trkpt>
      <trkpt lat="43.482478" lon="1.587188">
        <ele>167.2</ele>
        <time>2014-03-24T08:31:07Z</time>
      </trkpt>
      <trkpt lat="43.482442" lon="1.587312">
        <ele>167.7</ele>
        <time>2014-03-24T08:31:13Z</time>
      </trkpt>
      <trkpt lat="43.482398" lon="1.587437">
        <ele>167.9</ele>
        <time>2014-03-24T08:31:22Z</time>
      </trkpt>
      <trkpt lat="43.482353" lon="1.587547">
        <ele>167.7</ele>
        <time>2014-03-24T08:31:28Z</time>
      </trkpt>
      <trkpt lat="43.482308" lon="1.587662">
        <ele>167.9</ele>
        <time>2014-03-24T08:31:36Z</time>
      </trkpt>
      <trkpt lat="43.482255" lon="1.587771">
        <ele>168.1</ele>
        <time>2014-03-24T08:31:42Z</time>
      </trkpt>
      <trkpt lat="43.482213" lon="1.587851">
        <ele>168.4</ele>
        <time>2014-03-24T08:31:50Z</time>
      </trkpt>
      <trkpt lat="43.482165" lon="1.587950">
        <ele>168.9</ele>
        <time>2014-03-24T08:31:58Z</time>
      </trkpt>
      <trkpt lat="43.482106" lon="1.588062">
        <ele>169.0</ele>
        <time>2014-03-24T08:32:06Z</time>
      </trkpt>
      <trkpt lat="43.482058" lon="1.588179">
        <ele>169.4</ele>
        <time>2014-03-24T08:32:14Z</time>
      </trkpt>
      <trkpt lat="43.482014" lon="1.588300">
        <ele>169.9</ele>
        <time>2014-03-24T08:32:22Z</time>
      </trkpt>
      <trkpt lat="43.481969" lon="1.588423">
        <ele>170.6</ele>
        <time>2014-03-24T08:32:32Z</time>
        <name>Faouria</name>
      </trkpt>
      <trkpt lat="43.481939" lon="1.588531">
        <ele>171.0</ele>
        <time>2014-03-24T08:33:01Z</time>
      </trkpt>
      <trkpt lat="43.481856" lon="1.588619">
        <ele>170.9</ele>
        <time>2014-03-24T08:33:08Z</time>
      </trkpt>
      <trkpt lat="43.481788" lon="1.588719">
        <ele>171.1</ele>
        <time>2014-03-24T08:33:17Z</time>
      </trkpt>
      <trkpt lat="43.481734" lon="1.588830">
        <ele>171.1</ele>
        <time>2014-03-24T08:33:26Z</time>
      </trkpt>
      <trkpt lat="43.481668" lon="1.588936">
        <ele>171.0</ele>
        <time>2014-03-24T08:33:34Z</time>
      </trkpt>
      <trkpt lat="43.481602" lon="1.589045">
        <ele>170.8</ele>
        <time>2014-03-24T08:33:41Z</time>
      </trkpt>
      <trkpt lat="43.481549" lon="1.589149">
        <ele>170.5</ele>
        <time>2014-03-24T08:33:50Z</time>
      </trkpt>
      <trkpt lat="43.481482" lon="1.589261">
        <ele>170.6</ele>
        <time>2014-03-24T08:33:57Z</time>
      </trkpt>
      <trkpt lat="43.481471" lon="1.589392">
        <ele>170.8</ele>
        <time>2014-03-24T08:34:05Z</time>
      </trkpt>
      <trkpt lat="43.481438" lon="1.589511">
        <ele>170.9</ele>
        <time>2014-03-24T08:34:12Z</time>
      </trkpt>
      <trkpt lat="43.481415" lon="1.589646">
        <ele>171.2</ele>
        <time>2014-03-24T08:34:21Z</time>
      </trkpt>
      <trkpt lat="43.481383" lon="1.589787">
        <ele>171.3</ele>
        <time>2014-03-24T08:34:30Z</time>
      </trkpt>
      <trkpt lat="43.481355" lon="1.589924">
        <ele>171.5</ele>
        <time>2014-03-24T08:34:39Z</time>
      </trkpt>
      <trkpt lat="43.481320" lon="1.590062">
        <ele>171.7</ele>
        <time>2014-03-24T08:34:48Z</time>
      </trkpt>
      <trkpt lat="43.481277" lon="1.590193">
        <ele>171.7</ele>
        <time>2014-03-24T08:34:57Z</time>
      </trkpt>
      <trkpt lat="43.481237" lon="1.590324">
        <ele>172.0</ele>
        <time>2014-03-24T08:35:06Z</time>
      </trkpt>
      <trkpt lat="43.481213" lon="1.590449">
        <ele>172.2</ele>
        <time>2014-03-24T08:35:14Z</time>
      </trkpt>
      <trkpt lat="43.481167" lon="1.590554">
        <ele>172.6</ele>
        <time>2014-03-24T08:35:22Z</time>
      </trkpt>
      <trkpt lat="43.481115" lon="1.590669">
        <ele>173.0</ele>
        <time>2014-03-24T08:35:30Z</time>
      </trkpt>
      <trkpt lat="43.481069" lon="1.590787">
        <ele>173.3</ele>
        <time>2014-03-24T08:35:38Z</time>
      </trkpt>
      <trkpt lat="43.481031" lon="1.590909">
        <ele>173.5</ele>
        <time>2014-03-24T08:35:46Z</time>
      </trkpt>
      <trkpt lat="43.480991" lon="1.591031">
        <ele>173.7</ele>
        <time>2014-03-24T08:35:54Z</time>
      </trkpt>
      <trkpt lat="43.480952" lon="1.591142">
        <ele>173.9</ele>
        <time>2014-03-24T08:36:01Z</time>
      </trkpt>
      <trkpt lat="43.480926" lon="1.591280">
        <ele>173.9</ele>
        <time>2014-03-24T08:36:09Z</time>
      </trkpt>
      <trkpt lat="43.480870" lon="1.591395">
        <ele>174.1</ele>
        <time>2014-03-24T08:36:16Z</time>
      </trkpt>
      <trkpt lat="43.480855" lon="1.591533">
        <ele>174.3</ele>
        <time>2014-03-24T08:36:24Z</time>
      </trkpt>
      <trkpt lat="43.480812" lon="1.591659">
        <ele>174.7</ele>
        <time>2014-03-24T08:36:31Z</time>
      </trkpt>
      <trkpt lat="43.480790" lon="1.591785">
        <ele>174.8</ele>
        <time>2014-03-24T08:36:39Z</time>
      </trkpt>
      <trkpt lat="43.480743" lon="1.591896">
        <ele>175.1</ele>
        <time>2014-03-24T08:36:45Z</time>
      </trkpt>
      <trkpt lat="43.480701" lon="1.592010">
        <ele>175.2</ele>
        <time>2014-03-24T08:36:52Z</time>
      </trkpt>
      <trkpt lat="43.480642" lon="1.592138">
        <ele>175.3</ele>
        <time>2014-03-24T08:37:00Z</time>
      </trkpt>
      <trkpt lat="43.480613" lon="1.592241">
        <ele>175.4</ele>
        <time>2014-03-24T08:37:18Z</time>
      </trkpt>
      <trkpt lat="43.480570" lon="1.592360">
        <ele>175.6</ele>
        <time>2014-03-24T08:37:26Z</time>
      </trkpt>
      <trkpt lat="43.480515" lon="1.592469">
        <ele>175.6</ele>
        <time>2014-03-24T08:37:33Z</time>
      </trkpt>
      <trkpt lat="43.480469" lon="1.592579">
        <ele>175.8</ele>
        <time>2014-03-24T08:37:41Z</time>
      </trkpt>
      <trkpt lat="43.480405" lon="1.592675">
        <ele>176.1</ele>
        <time>2014-03-24T08:37:50Z</time>
      </trkpt>
      <trkpt lat="43.480333" lon="1.592773">
        <ele>176.2</ele>
        <time>2014-03-24T08:37:56Z</time>
      </trkpt>
      <trkpt lat="43.480277" lon="1.592857">
        <ele>176.5</ele>
        <time>2014-03-24T08:38:03Z</time>
      </trkpt>
      <trkpt lat="43.480209" lon="1.592969">
        <ele>176.7</ele>
        <time>2014-03-24T08:38:12Z</time>
      </trkpt>
      <trkpt lat="43.480122" lon="1.593057">
        <ele>176.9</ele>
        <time>2014-03-24T08:38:19Z</time>
      </trkpt>
      <trkpt lat="43.480064" lon="1.593149">
        <ele>177.3</ele>
        <time>2014-03-24T08:38:27Z</time>
      </trkpt>
      <trkpt lat="43.479988" lon="1.593263">
        <ele>177.3</ele>
        <time>2014-03-24T08:38:37Z</time>
      </trkpt>
      <trkpt lat="43.479903" lon="1.593388">
        <ele>177.8</ele>
        <time>2014-03-24T08:38:45Z</time>
      </trkpt>
      <trkpt lat="43.479836" lon="1.593475">
        <ele>177.9</ele>
        <time>2014-03-24T08:38:51Z</time>
      </trkpt>
      <trkpt lat="43.479764" lon="1.593554">
        <ele>177.9</ele>
        <time>2014-03-24T08:38:57Z</time>
      </trkpt>
      <trkpt lat="43.479700" lon="1.593632">
        <ele>178.4</ele>
        <time>2014-03-24T08:39:04Z</time>
      </trkpt>
      <trkpt lat="43.479634" lon="1.593729">
        <ele>179.0</ele>
        <time>2014-03-24T08:39:12Z</time>
      </trkpt>
      <trkpt lat="43.479568" lon="1.593832">
        <ele>178.6</ele>
        <time>2014-03-24T08:39:20Z</time>
      </trkpt>
      <trkpt lat="43.479502" lon="1.593914">
        <ele>178.9</ele>
        <time>2014-03-24T08:39:27Z</time>
      </trkpt>
      <trkpt lat="43.479438" lon="1.594016">
        <ele>179.1</ele>
        <time>2014-03-24T08:39:35Z</time>
      </trkpt>
      <trkpt lat="43.479376" lon="1.594114">
        <ele>179.6</ele>
        <time>2014-03-24T08:39:42Z</time>
      </trkpt>
      <trkpt lat="43.479311" lon="1.594207">
        <ele>180.1</ele>
        <time>2014-03-24T08:39:50Z</time>
      </trkpt>
      <trkpt lat="43.479247" lon="1.594305">
        <ele>180.5</ele>
        <time>2014-03-24T08:39:58Z</time>
      </trkpt>
      <trkpt lat="43.479182" lon="1.594401">
        <ele>180.7</ele>
        <time>2014-03-24T08:40:05Z</time>
      </trkpt>
      <trkpt lat="43.479124" lon="1.594509">
        <ele>181.2</ele>
        <time>2014-03-24T08:40:13Z</time>
      </trkpt>
      <trkpt lat="43.479053" lon="1.594598">
        <ele>181.6</ele>
        <time>2014-03-24T08:40:20Z</time>
      </trkpt>
      <trkpt lat="43.478992" lon="1.594695">
        <ele>182.1</ele>
        <time>2014-03-24T08:40:28Z</time>
      </trkpt>
      <trkpt lat="43.478925" lon="1.594791">
        <ele>182.7</ele>
        <time>2014-03-24T08:40:35Z</time>
      </trkpt>
      <trkpt lat="43.478860" lon="1.594889">
        <ele>183.1</ele>
        <time>2014-03-24T08:40:42Z</time>
      </trkpt>
      <trkpt lat="43.478789" lon="1.594996">
        <ele>183.6</ele>
        <time>2014-03-24T08:40:50Z</time>
      </trkpt>
      <trkpt lat="43.478723" lon="1.595090">
        <ele>184.1</ele>
        <time>2014-03-24T08:40:57Z</time>
      </trkpt>
      <trkpt lat="43.478658" lon="1.595193">
        <ele>184.5</ele>
        <time>2014-03-24T08:41:04Z</time>
      </trkpt>
      <trkpt lat="43.478603" lon="1.595300">
        <ele>185.0</ele>
        <time>2014-03-24T08:41:12Z</time>
      </trkpt>
      <trkpt lat="43.478540" lon="1.595398">
        <ele>185.4</ele>
        <time>2014-03-24T08:41:18Z</time>
      </trkpt>
      <trkpt lat="43.478477" lon="1.595504">
        <ele>185.9</ele>
        <time>2014-03-24T08:41:26Z</time>
      </trkpt>
      <trkpt lat="43.478416" lon="1.595601">
        <ele>186.2</ele>
        <time>2014-03-24T08:41:32Z</time>
      </trkpt>
      <trkpt lat="43.478357" lon="1.595700">
        <ele>186.6</ele>
        <time>2014-03-24T08:41:40Z</time>
      </trkpt>
      <trkpt lat="43.478296" lon="1.595800">
        <ele>187.0</ele>
        <time>2014-03-24T08:41:46Z</time>
      </trkpt>
      <trkpt lat="43.478241" lon="1.595907">
        <ele>187.2</ele>
        <time>2014-03-24T08:41:54Z</time>
      </trkpt>
      <trkpt lat="43.478175" lon="1.596008">
        <ele>187.3</ele>
        <time>2014-03-24T08:42:00Z</time>
      </trkpt>
      <trkpt lat="43.478116" lon="1.596116">
        <ele>187.5</ele>
        <time>2014-03-24T08:42:09Z</time>
      </trkpt>
      <trkpt lat="43.478045" lon="1.596226">
        <ele>187.9</ele>
        <time>2014-03-24T08:42:17Z</time>
      </trkpt>
      <trkpt lat="43.477981" lon="1.596343">
        <ele>188.2</ele>
        <time>2014-03-24T08:42:25Z</time>
      </trkpt>
      <trkpt lat="43.477915" lon="1.596448">
        <ele>188.5</ele>
        <time>2014-03-24T08:42:33Z</time>
      </trkpt>
      <trkpt lat="43.477855" lon="1.596557">
        <ele>188.5</ele>
        <time>2014-03-24T08:42:42Z</time>
      </trkpt>
      <trkpt lat="43.477776" lon="1.596661">
        <ele>188.6</ele>
        <time>2014-03-24T08:42:50Z</time>
      </trkpt>
      <trkpt lat="43.477703" lon="1.596777">
        <ele>189.0</ele>
        <time>2014-03-24T08:42:58Z</time>
      </trkpt>
      <trkpt lat="43.477645" lon="1.596885">
        <ele>189.0</ele>
        <time>2014-03-24T08:43:06Z</time>
      </trkpt>
      <trkpt lat="43.477579" lon="1.596996">
        <ele>189.3</ele>
        <time>2014-03-24T08:43:13Z</time>
      </trkpt>
      <trkpt lat="43.477503" lon="1.597101">
        <ele>189.5</ele>
        <time>2014-03-24T08:43:21Z</time>
      </trkpt>
      <trkpt lat="43.477447" lon="1.597218">
        <ele>189.6</ele>
        <time>2014-03-24T08:43:29Z</time>
      </trkpt>
      <trkpt lat="43.477382" lon="1.597319">
        <ele>189.8</ele>
        <time>2014-03-24T08:43:36Z</time>
      </trkpt>
      <trkpt lat="43.477327" lon="1.597415">
        <ele>190.1</ele>
        <time>2014-03-24T08:43:45Z</time>
      </trkpt>
      <trkpt lat="43.477262" lon="1.597520">
        <ele>190.4</ele>
        <time>2014-03-24T08:43:52Z</time>
      </trkpt>
      <trkpt lat="43.477194" lon="1.597626">
        <ele>190.9</ele>
        <time>2014-03-24T08:44:00Z</time>
      </trkpt>
      <trkpt lat="43.477133" lon="1.597729">
        <ele>191.2</ele>
        <time>2014-03-24T08:44:08Z</time>
      </trkpt>
      <trkpt lat="43.477063" lon="1.597809">
        <ele>191.5</ele>
        <time>2014-03-24T08:44:14Z</time>
      </trkpt>
      <trkpt lat="43.477024" lon="1.597917">
        <ele>191.8</ele>
        <time>2014-03-24T08:44:21Z</time>
      </trkpt>
      <trkpt lat="43.476950" lon="1.598007">
        <ele>192.2</ele>
        <time>2014-03-24T08:44:30Z</time>
      </trkpt>
      <trkpt lat="43.476890" lon="1.598105">
        <ele>192.7</ele>
        <time>2014-03-24T08:44:38Z</time>
      </trkpt>
      <trkpt lat="43.476828" lon="1.598204">
        <ele>192.8</ele>
        <time>2014-03-24T08:44:47Z</time>
      </trkpt>
      <trkpt lat="43.476762" lon="1.598297">
        <ele>193.1</ele>
        <time>2014-03-24T08:44:54Z</time>
      </trkpt>
      <trkpt lat="43.476693" lon="1.598399">
        <ele>193.4</ele>
        <time>2014-03-24T08:45:02Z</time>
      </trkpt>
      <trkpt lat="43.476633" lon="1.598501">
        <ele>193.4</ele>
        <time>2014-03-24T08:45:09Z</time>
      </trkpt>
      <trkpt lat="43.476569" lon="1.598593">
        <ele>193.6</ele>
        <time>2014-03-24T08:45:17Z</time>
      </trkpt>
      <trkpt lat="43.476505" lon="1.598699">
        <ele>193.8</ele>
        <time>2014-03-24T08:45:25Z</time>
      </trkpt>
      <trkpt lat="43.476440" lon="1.598790">
        <ele>194.0</ele>
        <time>2014-03-24T08:45:33Z</time>
      </trkpt>
      <trkpt lat="43.476392" lon="1.598888">
        <ele>194.1</ele>
        <time>2014-03-24T08:45:40Z</time>
      </trkpt>
      <trkpt lat="43.476333" lon="1.598988">
        <ele>194.2</ele>
        <time>2014-03-24T08:45:48Z</time>
      </trkpt>
      <trkpt lat="43.476270" lon="1.599091">
        <ele>194.3</ele>
        <time>2014-03-24T08:45:56Z</time>
      </trkpt>
      <trkpt lat="43.476211" lon="1.599203">
        <ele>194.5</ele>
        <time>2014-03-24T08:46:04Z</time>
      </trkpt>
      <trkpt lat="43.476149" lon="1.599298">
        <ele>194.6</ele>
        <time>2014-03-24T08:46:11Z</time>
      </trkpt>
      <trkpt lat="43.476089" lon="1.599399">
        <ele>194.7</ele>
        <time>2014-03-24T08:46:20Z</time>
      </trkpt>
      <trkpt lat="43.475999" lon="1.599447">
        <ele>194.4</ele>
        <time>2014-03-24T08:46:44Z</time>
        <name>Philipou</name>
      </trkpt>
      <trkpt lat="43.475906" lon="1.599421">
        <ele>194.3</ele>
        <time>2014-03-24T08:46:55Z</time>
      </trkpt>
      <trkpt lat="43.475805" lon="1.599391">
        <ele>194.5</ele>
        <time>2014-03-24T08:47:06Z</time>
      </trkpt>
      <trkpt lat="43.475708" lon="1.599356">
        <ele>194.5</ele>
        <time>2014-03-24T08:47:14Z</time>
      </trkpt>
      <trkpt lat="43.475616" lon="1.599326">
        <ele>195.2</ele>
        <time>2014-03-24T08:47:23Z</time>
      </trkpt>
      <trkpt lat="43.475516" lon="1.599276">
        <ele>195.1</ele>
        <time>2014-03-24T08:47:32Z</time>
      </trkpt>
      <trkpt lat="43.475404" lon="1.599237">
        <ele>195.3</ele>
        <time>2014-03-24T08:47:40Z</time>
      </trkpt>
      <trkpt lat="43.475294" lon="1.599200">
        <ele>195.5</ele>
        <time>2014-03-24T08:47:49Z</time>
      </trkpt>
      <trkpt lat="43.475202" lon="1.599178">
        <ele>195.6</ele>
        <time>2014-03-24T08:47:56Z</time>
      </trkpt>
      <trkpt lat="43.475120" lon="1.599152">
        <ele>196.0</ele>
        <time>2014-03-24T08:48:03Z</time>
      </trkpt>
      <trkpt lat="43.475016" lon="1.599121">
        <ele>196.1</ele>
        <time>2014-03-24T08:48:11Z</time>
      </trkpt>
      <trkpt lat="43.474918" lon="1.599107">
        <ele>195.8</ele>
        <time>2014-03-24T08:48:19Z</time>
      </trkpt>
      <trkpt lat="43.474817" lon="1.599082">
        <ele>195.4</ele>
        <time>2014-03-24T08:48:27Z</time>
      </trkpt>
      <trkpt lat="43.474778" lon="1.599043">
        <ele>194.6</ele>
        <time>2014-03-24T08:50:35Z</time>
      </trkpt>
      <trkpt lat="43.474740" lon="1.598931">
        <ele>194.6</ele>
        <time>2014-03-24T08:51:26Z</time>
      </trkpt>
      <trkpt lat="43.474686" lon="1.598811">
        <ele>194.5</ele>
        <time>2014-03-24T08:51:35Z</time>
      </trkpt>
      <trkpt lat="43.474629" lon="1.598705">
        <ele>194.1</ele>
        <time>2014-03-24T08:51:43Z</time>
      </trkpt>
      <trkpt lat="43.474566" lon="1.598614">
        <ele>193.9</ele>
        <time>2014-03-24T08:51:51Z</time>
      </trkpt>
      <trkpt lat="43.474495" lon="1.598526">
        <ele>193.7</ele>
        <time>2014-03-24T08:51:59Z</time>
      </trkpt>
      <trkpt lat="43.474420" lon="1.598441">
        <ele>193.7</ele>
        <time>2014-03-24T08:52:08Z</time>
      </trkpt>
      <trkpt lat="43.474341" lon="1.598384">
        <ele>193.7</ele>
        <time>2014-03-24T08:52:17Z</time>
      </trkpt>
      <trkpt lat="43.474255" lon="1.598307">
        <ele>193.6</ele>
        <time>2014-03-24T08:52:26Z</time>
      </trkpt>
      <trkpt lat="43.474172" lon="1.598240">
        <ele>193.5</ele>
        <time>2014-03-24T08:52:35Z</time>
      </trkpt>
      <trkpt lat="43.474090" lon="1.598173">
        <ele>193.6</ele>
        <time>2014-03-24T08:52:43Z</time>
      </trkpt>
      <trkpt lat="43.474003" lon="1.598104">
        <ele>193.4</ele>
        <time>2014-03-24T08:52:52Z</time>
      </trkpt>
      <trkpt lat="43.473901" lon="1.598049">
        <ele>193.4</ele>
        <time>2014-03-24T08:53:00Z</time>
      </trkpt>
      <trkpt lat="43.473829" lon="1.597990">
        <ele>193.4</ele>
        <time>2014-03-24T08:53:07Z</time>
      </trkpt>
      <trkpt lat="43.473758" lon="1.597930">
        <ele>193.5</ele>
        <time>2014-03-24T08:53:14Z</time>
      </trkpt>
      <trkpt lat="43.473681" lon="1.597843">
        <ele>193.5</ele>
        <time>2014-03-24T08:53:22Z</time>
      </trkpt>
      <trkpt lat="43.473652" lon="1.597727">
        <ele>193.5</ele>
        <time>2014-03-24T08:53:29Z</time>
      </trkpt>
      <trkpt lat="43.473643" lon="1.597595">
        <ele>193.3</ele>
        <time>2014-03-24T08:53:37Z</time>
      </trkpt>
      <trkpt lat="43.473657" lon="1.597470">
        <ele>193.1</ele>
        <time>2014-03-24T08:53:44Z</time>
      </trkpt>
      <trkpt lat="43.473658" lon="1.597337">
        <ele>192.8</ele>
        <time>2014-03-24T08:53:52Z</time>
      </trkpt>
      <trkpt lat="43.473647" lon="1.597201">
        <ele>192.4</ele>
        <time>2014-03-24T08:54:01Z</time>
      </trkpt>
      <trkpt lat="43.473622" lon="1.597073">
        <ele>192.4</ele>
        <time>2014-03-24T08:54:09Z</time>
      </trkpt>
      <trkpt lat="43.473591" lon="1.596946">
        <ele>192.1</ele>
        <time>2014-03-24T08:54:16Z</time>
      </trkpt>
      <trkpt lat="43.473567" lon="1.596816">
        <ele>191.6</ele>
        <time>2014-03-24T08:54:24Z</time>
      </trkpt>
      <trkpt lat="43.473528" lon="1.596686">
        <ele>191.0</ele>
        <time>2014-03-24T08:54:32Z</time>
      </trkpt>
      <trkpt lat="43.473489" lon="1.596567">
        <ele>190.4</ele>
        <time>2014-03-24T08:54:39Z</time>
      </trkpt>
      <trkpt lat="43.473463" lon="1.596444">
        <ele>189.7</ele>
        <time>2014-03-24T08:54:47Z</time>
      </trkpt>
      <trkpt lat="43.473424" lon="1.596316">
        <ele>189.3</ele>
        <time>2014-03-24T08:54:55Z</time>
      </trkpt>
      <trkpt lat="43.473393" lon="1.596187">
        <ele>188.6</ele>
        <time>2014-03-24T08:55:02Z</time>
      </trkpt>
      <trkpt lat="43.473365" lon="1.596070">
        <ele>188.0</ele>
        <time>2014-03-24T08:55:09Z</time>
      </trkpt>
      <trkpt lat="43.473327" lon="1.595946">
        <ele>187.5</ele>
        <time>2014-03-24T08:55:17Z</time>
      </trkpt>
      <trkpt lat="43.473292" lon="1.595815">
        <ele>186.7</ele>
        <time>2014-03-24T08:55:25Z</time>
      </trkpt>
      <trkpt lat="43.473258" lon="1.595683">
        <ele>186.2</ele>
        <time>2014-03-24T08:55:32Z</time>
      </trkpt>
      <trkpt lat="43.473225" lon="1.595561">
        <ele>186.0</ele>
        <time>2014-03-24T08:55:40Z</time>
      </trkpt>
      <trkpt lat="43.473180" lon="1.595430">
        <ele>185.6</ele>
        <time>2014-03-24T08:55:48Z</time>
      </trkpt>
      <trkpt lat="43.473148" lon="1.595299">
        <ele>185.3</ele>
        <time>2014-03-24T08:55:56Z</time>
      </trkpt>
      <trkpt lat="43.473104" lon="1.595175">
        <ele>185.0</ele>
        <time>2014-03-24T08:56:04Z</time>
      </trkpt>
      <trkpt lat="43.473062" lon="1.595052">
        <ele>184.8</ele>
        <time>2014-03-24T08:56:12Z</time>
      </trkpt>
      <trkpt lat="43.473021" lon="1.594931">
        <ele>185.0</ele>
        <time>2014-03-24T08:56:20Z</time>
      </trkpt>
      <trkpt lat="43.472984" lon="1.594805">
        <ele>184.9</ele>
        <time>2014-03-24T08:56:28Z</time>
      </trkpt>
      <trkpt lat="43.472945" lon="1.594679">
        <ele>184.5</ele>
        <time>2014-03-24T08:56:36Z</time>
      </trkpt>
      <trkpt lat="43.472901" lon="1.594562">
        <ele>184.2</ele>
        <time>2014-03-24T08:56:44Z</time>
      </trkpt>
      <trkpt lat="43.472857" lon="1.594452">
        <ele>184.0</ele>
        <time>2014-03-24T08:56:52Z</time>
      </trkpt>
      <trkpt lat="43.472803" lon="1.594339">
        <ele>183.7</ele>
        <time>2014-03-24T08:57:00Z</time>
      </trkpt>
      <trkpt lat="43.472759" lon="1.594220">
        <ele>183.6</ele>
        <time>2014-03-24T08:57:08Z</time>
      </trkpt>
      <trkpt lat="43.472713" lon="1.594114">
        <ele>183.5</ele>
        <time>2014-03-24T08:57:16Z</time>
      </trkpt>
      <trkpt lat="43.472653" lon="1.594001">
        <ele>183.5</ele>
        <time>2014-03-24T08:57:24Z</time>
      </trkpt>
      <trkpt lat="43.472567" lon="1.593915">
        <ele>183.5</ele>
        <time>2014-03-24T08:57:32Z</time>
      </trkpt>
      <trkpt lat="43.472488" lon="1.593856">
        <ele>183.5</ele>
        <time>2014-03-24T08:57:39Z</time>
      </trkpt>
      <trkpt lat="43.472415" lon="1.593786">
        <ele>183.6</ele>
        <time>2014-03-24T08:57:46Z</time>
      </trkpt>
      <trkpt lat="43.472352" lon="1.593717">
        <ele>183.7</ele>
        <time>2014-03-24T08:57:53Z</time>
      </trkpt>
      <trkpt lat="43.472273" lon="1.593635">
        <ele>183.8</ele>
        <time>2014-03-24T08:58:00Z</time>
      </trkpt>
      <trkpt lat="43.472191" lon="1.593556">
        <ele>183.9</ele>
        <time>2014-03-24T08:58:07Z</time>
      </trkpt>
      <trkpt lat="43.472116" lon="1.593477">
        <ele>184.0</ele>
        <time>2014-03-24T08:58:15Z</time>
      </trkpt>
      <trkpt lat="43.472038" lon="1.593393">
        <ele>184.4</ele>
        <time>2014-03-24T08:58:23Z</time>
      </trkpt>
      <trkpt lat="43.471961" lon="1.593322">
        <ele>184.7</ele>
        <time>2014-03-24T08:58:31Z</time>
      </trkpt>
      <trkpt lat="43.471900" lon="1.593242">
        <ele>185.0</ele>
        <time>2014-03-24T08:58:38Z</time>
      </trkpt>
      <trkpt lat="43.471823" lon="1.593144">
        <ele>185.4</ele>
        <time>2014-03-24T08:58:46Z</time>
      </trkpt>
      <trkpt lat="43.471742" lon="1.593069">
        <ele>185.6</ele>
        <time>2014-03-24T08:58:54Z</time>
      </trkpt>
      <trkpt lat="43.471664" lon="1.592978">
        <ele>185.7</ele>
        <time>2014-03-24T08:59:01Z</time>
      </trkpt>
      <trkpt lat="43.471604" lon="1.592887">
        <ele>185.9</ele>
        <time>2014-03-24T08:59:07Z</time>
      </trkpt>
      <trkpt lat="43.471531" lon="1.592802">
        <ele>186.4</ele>
        <time>2014-03-24T08:59:15Z</time>
      </trkpt>
      <trkpt lat="43.471460" lon="1.592716">
        <ele>186.7</ele>
        <time>2014-03-24T08:59:23Z</time>
      </trkpt>
      <trkpt lat="43.471422" lon="1.592597">
        <ele>187.2</ele>
        <time>2014-03-24T08:59:31Z</time>
      </trkpt>
      <trkpt lat="43.471442" lon="1.592460">
        <ele>188.3</ele>
        <time>2014-03-24T08:59:41Z</time>
      </trkpt>
      <trkpt lat="43.471458" lon="1.592330">
        <ele>188.9</ele>
        <time>2014-03-24T08:59:50Z</time>
      </trkpt>
      <trkpt lat="43.471475" lon="1.592200">
        <ele>189.3</ele>
        <time>2014-03-24T08:59:59Z</time>
      </trkpt>
      <trkpt lat="43.471480" lon="1.592068">
        <ele>189.8</ele>
        <time>2014-03-24T09:00:08Z</time>
      </trkpt>
      <trkpt lat="43.471528" lon="1.591937">
        <ele>190.1</ele>
        <time>2014-03-24T09:00:17Z</time>
      </trkpt>
      <trkpt lat="43.471568" lon="1.591810">
        <ele>190.4</ele>
        <time>2014-03-24T09:00:26Z</time>
      </trkpt>
      <trkpt lat="43.471620" lon="1.591691">
        <ele>190.7</ele>
        <time>2014-03-24T09:00:35Z</time>
      </trkpt>
      <trkpt lat="43.471657" lon="1.591553">
        <ele>191.1</ele>
        <time>2014-03-24T09:00:44Z</time>
      </trkpt>
      <trkpt lat="43.471692" lon="1.591435">
        <ele>191.3</ele>
        <time>2014-03-24T09:00:53Z</time>
      </trkpt>
      <trkpt lat="43.471730" lon="1.591292">
        <ele>191.6</ele>
        <time>2014-03-24T09:01:04Z</time>
      </trkpt>
      <trkpt lat="43.471761" lon="1.591155">
        <ele>192.1</ele>
        <time>2014-03-24T09:01:12Z</time>
      </trkpt>
      <trkpt lat="43.471803" lon="1.591025">
        <ele>192.4</ele>
        <time>2014-03-24T09:01:21Z</time>
      </trkpt>
      <trkpt lat="43.471838" lon="1.590893">
        <ele>193.0</ele>
        <time>2014-03-24T09:01:30Z</time>
      </trkpt>
      <trkpt lat="43.471873" lon="1.590759">
        <ele>193.5</ele>
        <time>2014-03-24T09:01:39Z</time>
      </trkpt>
      <trkpt lat="43.471924" lon="1.590626">
        <ele>193.6</ele>
        <time>2014-03-24T09:01:49Z</time>
      </trkpt>
      <trkpt lat="43.471978" lon="1.590522">
        <ele>193.6</ele>
        <time>2014-03-24T09:01:58Z</time>
      </trkpt>
      <trkpt lat="43.472040" lon="1.590429">
        <ele>193.6</ele>
        <time>2014-03-24T09:02:07Z</time>
      </trkpt>
      <trkpt lat="43.472115" lon="1.590357">
        <ele>193.7</ele>
        <time>2014-03-24T09:02:15Z</time>
      </trkpt>
      <trkpt lat="43.472197" lon="1.590295">
        <ele>194.1</ele>
        <time>2014-03-24T09:02:24Z</time>
      </trkpt>
      <trkpt lat="43.472284" lon="1.590238">
        <ele>194.5</ele>
        <time>2014-03-24T09:02:32Z</time>
      </trkpt>
      <trkpt lat="43.472365" lon="1.590185">
        <ele>194.8</ele>
        <time>2014-03-24T09:02:40Z</time>
      </trkpt>
      <trkpt lat="43.472441" lon="1.590136">
        <ele>194.6</ele>
        <time>2014-03-24T09:02:47Z</time>
      </trkpt>
      <trkpt lat="43.472517" lon="1.590067">
        <ele>194.6</ele>
        <time>2014-03-24T09:02:54Z</time>
      </trkpt>
      <trkpt lat="43.472586" lon="1.589991">
        <ele>193.9</ele>
        <time>2014-03-24T09:03:09Z</time>
      </trkpt>
      <trkpt lat="43.472675" lon="1.589933">
        <ele>193.8</ele>
        <time>2014-03-24T09:03:16Z</time>
      </trkpt>
      <trkpt lat="43.472760" lon="1.589861">
        <ele>193.4</ele>
        <time>2014-03-24T09:03:25Z</time>
      </trkpt>
      <trkpt lat="43.472850" lon="1.589811">
        <ele>193.4</ele>
        <time>2014-03-24T09:03:31Z</time>
      </trkpt>
      <trkpt lat="43.472927" lon="1.589740">
        <ele>193.4</ele>
        <time>2014-03-24T09:03:40Z</time>
      </trkpt>
      <trkpt lat="43.473006" lon="1.589689">
        <ele>193.4</ele>
        <time>2014-03-24T09:03:46Z</time>
      </trkpt>
      <trkpt lat="43.473090" lon="1.589631">
        <ele>193.1</ele>
        <time>2014-03-24T09:03:54Z</time>
      </trkpt>
      <trkpt lat="43.473169" lon="1.589574">
        <ele>192.9</ele>
        <time>2014-03-24T09:04:02Z</time>
        <name>Poste electrique</name>
      </trkpt>
      <trkpt lat="43.473150" lon="1.589508">
        <ele>192.7</ele>
        <time>2014-03-24T09:04:13Z</time>
      </trkpt>
      <trkpt lat="43.473066" lon="1.589444">
        <ele>192.7</ele>
        <time>2014-03-24T09:04:22Z</time>
      </trkpt>
      <trkpt lat="43.472981" lon="1.589383">
        <ele>192.6</ele>
        <time>2014-03-24T09:04:32Z</time>
      </trkpt>
      <trkpt lat="43.472896" lon="1.589314">
        <ele>193.0</ele>
        <time>2014-03-24T09:04:52Z</time>
      </trkpt>
      <trkpt lat="43.472823" lon="1.589231">
        <ele>193.1</ele>
        <time>2014-03-24T09:05:00Z</time>
      </trkpt>
      <trkpt lat="43.472748" lon="1.589148">
        <ele>192.9</ele>
        <time>2014-03-24T09:05:07Z</time>
      </trkpt>
      <trkpt lat="43.472668" lon="1.589077">
        <ele>192.3</ele>
        <time>2014-03-24T09:05:15Z</time>
      </trkpt>
      <trkpt lat="43.472585" lon="1.588986">
        <ele>191.8</ele>
        <time>2014-03-24T09:05:31Z</time>
      </trkpt>
      <trkpt lat="43.472509" lon="1.588905">
        <ele>191.9</ele>
        <time>2014-03-24T09:05:40Z</time>
      </trkpt>
      <trkpt lat="43.472437" lon="1.588830">
        <ele>192.0</ele>
        <time>2014-03-24T09:05:48Z</time>
      </trkpt>
      <trkpt lat="43.472361" lon="1.588751">
        <ele>192.1</ele>
        <time>2014-03-24T09:05:56Z</time>
      </trkpt>
      <trkpt lat="43.472283" lon="1.588664">
        <ele>192.3</ele>
        <time>2014-03-24T09:06:04Z</time>
      </trkpt>
      <trkpt lat="43.472206" lon="1.588581">
        <ele>192.6</ele>
        <time>2014-03-24T09:06:12Z</time>
      </trkpt>
      <trkpt lat="43.472137" lon="1.588493">
        <ele>192.6</ele>
        <time>2014-03-24T09:06:19Z</time>
      </trkpt>
      <trkpt lat="43.472071" lon="1.588412">
        <ele>192.8</ele>
        <time>2014-03-24T09:06:27Z</time>
      </trkpt>
      <trkpt lat="43.472004" lon="1.588332">
        <ele>192.8</ele>
        <time>2014-03-24T09:06:36Z</time>
      </trkpt>
      <trkpt lat="43.471929" lon="1.588224">
        <ele>193.0</ele>
        <time>2014-03-24T09:06:45Z</time>
      </trkpt>
      <trkpt lat="43.471866" lon="1.588117">
        <ele>193.1</ele>
        <time>2014-03-24T09:07:22Z</time>
      </trkpt>
      <trkpt lat="43.471826" lon="1.587998">
        <ele>193.2</ele>
        <time>2014-03-24T09:07:31Z</time>
      </trkpt>
      <trkpt lat="43.471854" lon="1.587863">
        <ele>193.5</ele>
        <time>2014-03-24T09:07:39Z</time>
      </trkpt>
      <trkpt lat="43.471899" lon="1.587745">
        <ele>193.2</ele>
        <time>2014-03-24T09:07:47Z</time>
      </trkpt>
      <trkpt lat="43.471957" lon="1.587639">
        <ele>193.2</ele>
        <time>2014-03-24T09:07:55Z</time>
      </trkpt>
      <trkpt lat="43.472014" lon="1.587534">
        <ele>193.3</ele>
        <time>2014-03-24T09:08:02Z</time>
      </trkpt>
      <trkpt lat="43.472072" lon="1.587428">
        <ele>193.4</ele>
        <time>2014-03-24T09:08:10Z</time>
      </trkpt>
      <trkpt lat="43.472124" lon="1.587308">
        <ele>193.4</ele>
        <time>2014-03-24T09:08:18Z</time>
      </trkpt>
      <trkpt lat="43.472180" lon="1.587210">
        <ele>193.2</ele>
        <time>2014-03-24T09:08:26Z</time>
      </trkpt>
      <trkpt lat="43.472250" lon="1.587103">
        <ele>193.3</ele>
        <time>2014-03-24T09:08:35Z</time>
      </trkpt>
      <trkpt lat="43.472301" lon="1.586999">
        <ele>193.3</ele>
        <time>2014-03-24T09:08:44Z</time>
      </trkpt>
      <trkpt lat="43.472361" lon="1.586894">
        <ele>193.1</ele>
        <time>2014-03-24T09:08:53Z</time>
      </trkpt>
      <trkpt lat="43.472411" lon="1.586782">
        <ele>192.6</ele>
        <time>2014-03-24T09:09:02Z</time>
      </trkpt>
      <trkpt lat="43.472464" lon="1.586671">
        <ele>192.1</ele>
        <time>2014-03-24T09:09:11Z</time>
      </trkpt>
      <trkpt lat="43.472501" lon="1.586552">
        <ele>191.5</ele>
        <time>2014-03-24T09:09:21Z</time>
      </trkpt>
      <trkpt lat="43.472518" lon="1.586450">
        <ele>191.0</ele>
        <time>2014-03-24T09:09:32Z</time>
      </trkpt>
      <trkpt lat="43.472571" lon="1.586327">
        <ele>190.3</ele>
        <time>2014-03-24T09:09:56Z</time>
      </trkpt>
      <trkpt lat="43.472628" lon="1.586208">
        <ele>189.9</ele>
        <time>2014-03-24T09:10:05Z</time>
      </trkpt>
      <trkpt lat="43.472693" lon="1.586104">
        <ele>189.1</ele>
        <time>2014-03-24T09:10:15Z</time>
      </trkpt>
      <trkpt lat="43.472757" lon="1.585979">
        <ele>188.6</ele>
        <time>2014-03-24T09:10:25Z</time>
      </trkpt>
      <trkpt lat="43.472804" lon="1.585849">
        <ele>188.1</ele>
        <time>2014-03-24T09:10:34Z</time>
      </trkpt>
      <trkpt lat="43.472857" lon="1.585729">
        <ele>187.1</ele>
        <time>2014-03-24T09:10:45Z</time>
      </trkpt>
      <trkpt lat="43.472920" lon="1.585618">
        <ele>186.8</ele>
        <time>2014-03-24T09:10:54Z</time>
      </trkpt>
      <trkpt lat="43.472998" lon="1.585539">
        <ele>186.3</ele>
        <time>2014-03-24T09:11:05Z</time>
      </trkpt>
      <trkpt lat="43.473086" lon="1.585591">
        <ele>187.0</ele>
        <time>2014-03-24T09:11:15Z</time>
      </trkpt>
      <trkpt lat="43.473168" lon="1.585671">
        <ele>187.3</ele>
        <time>2014-03-24T09:11:25Z</time>
      </trkpt>
      <trkpt lat="43.473261" lon="1.585714">
        <ele>187.0</ele>
        <time>2014-03-24T09:11:34Z</time>
      </trkpt>
      <trkpt lat="43.473334" lon="1.585645">
        <ele>186.8</ele>
        <time>2014-03-24T09:11:43Z</time>
      </trkpt>
      <trkpt lat="43.473385" lon="1.585534">
        <ele>186.1</ele>
        <time>2014-03-24T09:11:51Z</time>
      </trkpt>
      <trkpt lat="43.473427" lon="1.585401">
        <ele>185.1</ele>
        <time>2014-03-24T09:12:01Z</time>
      </trkpt>
      <trkpt lat="43.473479" lon="1.585258">
        <ele>184.2</ele>
        <time>2014-03-24T09:12:11Z</time>
      </trkpt>
      <trkpt lat="43.473522" lon="1.585138">
        <ele>183.4</ele>
        <time>2014-03-24T09:12:21Z</time>
      </trkpt>
      <trkpt lat="43.473573" lon="1.585011">
        <ele>182.9</ele>
        <time>2014-03-24T09:12:31Z</time>
      </trkpt>
      <trkpt lat="43.473602" lon="1.584881">
        <ele>182.3</ele>
        <time>2014-03-24T09:12:41Z</time>
      </trkpt>
      <trkpt lat="43.473546" lon="1.584769">
        <ele>181.9</ele>
        <time>2014-03-24T09:12:50Z</time>
      </trkpt>
      <trkpt lat="43.473457" lon="1.584722">
        <ele>182.1</ele>
        <time>2014-03-24T09:12:58Z</time>
      </trkpt>
      <trkpt lat="43.473371" lon="1.584656">
        <ele>182.6</ele>
        <time>2014-03-24T09:13:06Z</time>
      </trkpt>
      <trkpt lat="43.473318" lon="1.584547">
        <ele>182.9</ele>
        <time>2014-03-24T09:13:14Z</time>
      </trkpt>
      <trkpt lat="43.473344" lon="1.584439">
        <ele>182.2</ele>
        <time>2014-03-24T09:13:22Z</time>
      </trkpt>
      <trkpt lat="43.473393" lon="1.584312">
        <ele>181.8</ele>
        <time>2014-03-24T09:13:31Z</time>
      </trkpt>
      <trkpt lat="43.473445" lon="1.584205">
        <ele>181.5</ele>
        <time>2014-03-24T09:13:40Z</time>
      </trkpt>
      <trkpt lat="43.473498" lon="1.584074">
        <ele>180.9</ele>
        <time>2014-03-24T09:13:49Z</time>
      </trkpt>
      <trkpt lat="43.473551" lon="1.583940">
        <ele>180.2</ele>
        <time>2014-03-24T09:13:59Z</time>
      </trkpt>
      <trkpt lat="43.473605" lon="1.583795">
        <ele>179.7</ele>
        <time>2014-03-24T09:14:09Z</time>
      </trkpt>
      <trkpt lat="43.473674" lon="1.583657">
        <ele>179.4</ele>
        <time>2014-03-24T09:14:19Z</time>
      </trkpt>
      <trkpt lat="43.473720" lon="1.583526">
        <ele>178.8</ele>
        <time>2014-03-24T09:14:29Z</time>
      </trkpt>
      <trkpt lat="43.473776" lon="1.583397">
        <ele>178.4</ele>
        <time>2014-03-24T09:14:39Z</time>
      </trkpt>
      <trkpt lat="43.473833" lon="1.583253">
        <ele>178.2</ele>
        <time>2014-03-24T09:14:47Z</time>
      </trkpt>
      <trkpt lat="43.473882" lon="1.583139">
        <ele>177.4</ele>
        <time>2014-03-24T09:14:56Z</time>
      </trkpt>
      <trkpt lat="43.473926" lon="1.582994">
        <ele>175.9</ele>
        <time>2014-03-24T09:15:24Z</time>
      </trkpt>
      <trkpt lat="43.473954" lon="1.582840">
        <ele>175.5</ele>
        <time>2014-03-24T09:15:50Z</time>
      </trkpt>
      <trkpt lat="43.474031" lon="1.582726">
        <ele>175.2</ele>
        <time>2014-03-24T09:16:08Z</time>
      </trkpt>
      <trkpt lat="43.474063" lon="1.582587">
        <ele>177.0</ele>
        <time>2014-03-24T09:16:22Z</time>
      </trkpt>
      <trkpt lat="43.474131" lon="1.582482">
        <ele>176.8</ele>
        <time>2014-03-24T09:17:09Z</time>
      </trkpt>
      <trkpt lat="43.474134" lon="1.582365">
        <ele>176.6</ele>
        <time>2014-03-24T09:17:42Z</time>
      </trkpt>
      <trkpt lat="43.474159" lon="1.582206">
        <ele>176.7</ele>
        <time>2014-03-24T09:17:55Z</time>
      </trkpt>
      <trkpt lat="43.474205" lon="1.582081">
        <ele>176.3</ele>
        <time>2014-03-24T09:18:11Z</time>
      </trkpt>
      <trkpt lat="43.474289" lon="1.581973">
        <ele>175.7</ele>
        <time>2014-03-24T09:18:25Z</time>
      </trkpt>
      <trkpt lat="43.474386" lon="1.581865">
        <ele>174.7</ele>
        <time>2014-03-24T09:18:36Z</time>
        <name>Chapelle</name>
      </trkpt>
      <trkpt lat="43.474267" lon="1.581997">
        <ele>169.0</ele>
        <time>2014-03-24T09:18:48Z</time>
      </trkpt>
      <trkpt lat="43.474176" lon="1.582164">
        <ele>169.8</ele>
        <time>2014-03-24T09:19:00Z</time>
      </trkpt>
      <trkpt lat="43.474136" lon="1.582412">
        <ele>170.7</ele>
        <time>2014-03-24T09:19:36Z</time>
      </trkpt>
      <trkpt lat="43.474031" lon="1.582728">
        <ele>171.9</ele>
        <time>2014-03-24T09:19:48Z</time>
      </trkpt>
      <trkpt lat="43.473839" lon="1.583224">
        <ele>173.5</ele>
        <time>2014-03-24T09:19:58Z</time>
      </trkpt>
      <trkpt lat="43.473699" lon="1.583600">
        <ele>175.2</ele>
        <time>2014-03-24T09:20:08Z</time>
      </trkpt>
      <trkpt lat="43.473479" lon="1.584151">
        <ele>177.1</ele>
        <time>2014-03-24T09:21:27Z</time>
      </trkpt>
      <trkpt lat="43.473320" lon="1.584561">
        <ele>178.4</ele>
        <time>2014-03-24T09:23:00Z</time>
      </trkpt>
      <trkpt lat="43.473527" lon="1.584772">
        <ele>179.9</ele>
        <time>2014-03-24T09:23:08Z</time>
      </trkpt>
      <trkpt lat="43.473601" lon="1.584904">
        <ele>180.8</ele>
        <time>2014-03-24T09:23:17Z</time>
      </trkpt>
      <trkpt lat="43.473331" lon="1.585679">
        <ele>184.1</ele>
        <time>2014-03-24T09:23:25Z</time>
      </trkpt>
      <trkpt lat="43.473225" lon="1.585708">
        <ele>184.1</ele>
        <time>2014-03-24T09:23:33Z</time>
      </trkpt>
      <trkpt lat="43.473016" lon="1.585570">
        <ele>183.2</ele>
        <time>2014-03-24T09:25:05Z</time>
      </trkpt>
      <trkpt lat="43.472872" lon="1.585688">
        <ele>183.8</ele>
        <time>2014-03-24T09:25:11Z</time>
      </trkpt>
      <trkpt lat="43.472646" lon="1.586203">
        <ele>185.1</ele>
        <time>2014-03-24T09:25:19Z</time>
      </trkpt>
      <trkpt lat="43.472353" lon="1.586868">
        <ele>186.5</ele>
        <time>2014-03-24T09:25:28Z</time>
      </trkpt>
      <trkpt lat="43.472066" lon="1.587434">
        <ele>187.9</ele>
        <time>2014-03-24T09:25:36Z</time>
      </trkpt>
      <trkpt lat="43.471851" lon="1.587856">
        <ele>189.1</ele>
        <time>2014-03-24T09:25:42Z</time>
      </trkpt>
      <trkpt lat="43.471831" lon="1.588126">
        <ele>189.5</ele>
        <time>2014-03-24T09:25:51Z</time>
      </trkpt>
      <trkpt lat="43.472470" lon="1.588898">
        <ele>189.1</ele>
        <time>2014-03-24T09:25:58Z</time>
      </trkpt>
      <trkpt lat="43.473161" lon="1.589536">
        <ele>187.0</ele>
        <time>2014-03-24T09:26:04Z</time>
      </trkpt>
      <trkpt lat="43.473761" lon="1.590156">
        <ele>186.0</ele>
        <time>2014-03-24T09:26:13Z</time>
      </trkpt>
      <trkpt lat="43.473865" lon="1.590076">
        <ele>185.7</ele>
        <time>2014-03-24T09:26:20Z</time>
      </trkpt>
      <trkpt lat="43.474491" lon="1.588898">
        <ele>183.5</ele>
        <time>2014-03-24T09:26:29Z</time>
      </trkpt>
      <trkpt lat="43.475535" lon="1.589662">
        <ele>188.0</ele>
        <time>2014-03-24T09:26:37Z</time>
      </trkpt>
      <trkpt lat="43.475610" lon="1.589857">
        <ele>188.2</ele>
        <time>2014-03-24T09:26:51Z</time>
      </trkpt>
      <trkpt lat="43.476027" lon="1.590180">
        <ele>186.5</ele>
        <time>2014-03-24T09:27:00Z</time>
      </trkpt>
      <trkpt lat="43.476465" lon="1.590575">
        <ele>183.9</ele>
        <time>2014-03-24T09:27:09Z</time>
      </trkpt>
      <trkpt lat="43.477002" lon="1.589563">
        <ele>181.4</ele>
        <time>2014-03-24T09:27:17Z</time>
      </trkpt>
      <trkpt lat="43.477367" lon="1.588801">
        <ele>180.3</ele>
        <time>2014-03-24T09:27:25Z</time>
      </trkpt>
      <trkpt lat="43.477485" lon="1.588531">
        <ele>180.4</ele>
        <time>2014-03-24T09:29:21Z</time>
      </trkpt>
      <trkpt lat="43.477643" lon="1.588191">
        <ele>180.5</ele>
        <time>2014-03-24T09:29:30Z</time>
      </trkpt>
      <trkpt lat="43.477893" lon="1.587753">
        <ele>180.0</ele>
        <time>2014-03-24T09:29:38Z</time>
      </trkpt>
      <trkpt lat="43.477997" lon="1.587581">
        <ele>179.8</ele>
        <time>2014-03-24T09:29:46Z</time>
      </trkpt>
      <trkpt lat="43.478232" lon="1.587351">
        <ele>178.7</ele>
        <time>2014-03-24T09:29:55Z</time>
      </trkpt>
      <trkpt lat="43.478440" lon="1.587114">
        <ele>178.0</ele>
        <time>2014-03-24T09:30:04Z</time>
      </trkpt>
      <trkpt lat="43.478680" lon="1.586934">
        <ele>177.0</ele>
        <time>2014-03-24T09:30:13Z</time>
      </trkpt>
      <trkpt lat="43.479133" lon="1.586467">
        <ele>174.7</ele>
        <time>2014-03-24T09:30:21Z</time>
      </trkpt>
      <trkpt lat="43.479524" lon="1.586044">
        <ele>172.5</ele>
        <time>2014-03-24T09:30:31Z</time>
      </trkpt>
      <trkpt lat="43.479678" lon="1.585846">
        <ele>178.2</ele>
        <time>2014-03-24T09:30:39Z</time>
      </trkpt>
      <trkpt lat="43.479738" lon="1.585964">
        <ele>177.9</ele>
        <time>2014-03-24T09:30:48Z</time>
      </trkpt>
      <trkpt lat="43.479833" lon="1.586090">
        <ele>177.7</ele>
        <time>2014-03-24T09:31:01Z</time>
      </trkpt>
      <trkpt lat="43.479881" lon="1.586224">
        <ele>177.4</ele>
        <time>2014-03-24T09:31:08Z</time>
      </trkpt>
      <trkpt lat="43.479948" lon="1.586340">
        <ele>177.1</ele>
        <time>2014-03-24T09:31:17Z</time>
      </trkpt>
      <trkpt lat="43.480005" lon="1.586468">
        <ele>177.0</ele>
        <time>2014-03-24T09:31:24Z</time>
      </trkpt>
      <trkpt lat="43.480047" lon="1.586575">
        <ele>177.2</ele>
        <time>2014-03-24T09:31:30Z</time>
      </trkpt>
      <trkpt lat="43.480091" lon="1.586704">
        <ele>171.7</ele>
        <time>2014-03-24T09:31:40Z</time>
      </trkpt>
      <trkpt lat="43.480111" lon="1.586804">
        <ele>171.6</ele>
        <time>2014-03-24T09:34:45Z</time>
      </trkpt>
      <trkpt lat="43.480104" lon="1.586971">
        <ele>177.7</ele>
        <time>2014-03-24T09:34:55Z</time>
      </trkpt>
      <trkpt lat="43.480112" lon="1.587099">
        <ele>177.6</ele>
        <time>2014-03-24T09:35:03Z</time>
      </trkpt>
      <trkpt lat="43.480143" lon="1.587219">
        <ele>177.5</ele>
        <time>2014-03-24T09:35:11Z</time>
      </trkpt>
      <trkpt lat="43.480209" lon="1.587342">
        <ele>177.6</ele>
        <time>2014-03-24T09:35:20Z</time>
      </trkpt>
      <trkpt lat="43.480265" lon="1.587464">
        <ele>177.5</ele>
        <time>2014-03-24T09:35:30Z</time>
      </trkpt>
      <trkpt lat="43.480325" lon="1.587570">
        <ele>177.3</ele>
        <time>2014-03-24T09:35:38Z</time>
      </trkpt>
      <trkpt lat="43.480367" lon="1.587674">
        <ele>177.4</ele>
        <time>2014-03-24T09:35:46Z</time>
      </trkpt>
      <trkpt lat="43.480440" lon="1.587754">
        <ele>177.6</ele>
        <time>2014-03-24T09:35:54Z</time>
      </trkpt>
      <trkpt lat="43.480514" lon="1.587857">
        <ele>177.9</ele>
        <time>2014-03-24T09:36:02Z</time>
      </trkpt>
      <trkpt lat="43.480576" lon="1.587956">
        <ele>177.3</ele>
        <time>2014-03-24T09:36:09Z</time>
      </trkpt>
      <trkpt lat="43.480660" lon="1.588036">
        <ele>177.1</ele>
        <time>2014-03-24T09:36:17Z</time>
      </trkpt>
      <trkpt lat="43.480732" lon="1.588126">
        <ele>177.2</ele>
        <time>2014-03-24T09:36:24Z</time>
      </trkpt>
      <trkpt lat="43.480817" lon="1.588202">
        <ele>176.8</ele>
        <time>2014-03-24T09:36:32Z</time>
      </trkpt>
      <trkpt lat="43.480898" lon="1.588274">
        <ele>176.4</ele>
        <time>2014-03-24T09:36:40Z</time>
      </trkpt>
      <trkpt lat="43.480975" lon="1.588348">
        <ele>176.0</ele>
        <time>2014-03-24T09:36:48Z</time>
      </trkpt>
      <trkpt lat="43.481088" lon="1.588410">
        <ele>175.7</ele>
        <time>2014-03-24T09:36:57Z</time>
      </trkpt>
      <trkpt lat="43.481193" lon="1.588436">
        <ele>175.6</ele>
        <time>2014-03-24T09:37:08Z</time>
      </trkpt>
      <trkpt lat="43.481290" lon="1.588428">
        <ele>175.5</ele>
        <time>2014-03-24T09:38:25Z</time>
      </trkpt>
      <trkpt lat="43.481393" lon="1.588427">
        <ele>175.4</ele>
        <time>2014-03-24T09:38:33Z</time>
      </trkpt>
      <trkpt lat="43.481511" lon="1.588423">
        <ele>175.4</ele>
        <time>2014-03-24T09:38:44Z</time>
      </trkpt>
      <trkpt lat="43.481599" lon="1.588400">
        <ele>175.3</ele>
        <time>2014-03-24T09:38:50Z</time>
      </trkpt>
      <trkpt lat="43.481689" lon="1.588373">
        <ele>175.5</ele>
        <time>2014-03-24T09:38:58Z</time>
      </trkpt>
      <trkpt lat="43.481786" lon="1.588386">
        <ele>175.6</ele>
        <time>2014-03-24T09:39:04Z</time>
      </trkpt>
      <trkpt lat="43.481880" lon="1.588374">
        <ele>175.6</ele>
        <time>2014-03-24T09:39:12Z</time>
      </trkpt>
      <trkpt lat="43.481965" lon="1.588357">
        <ele>175.1</ele>
        <time>2014-03-24T09:39:21Z</time>
      </trkpt>
      <trkpt lat="43.482019" lon="1.588244">
        <ele>175.4</ele>
        <time>2014-03-24T09:39:29Z</time>
      </trkpt>
      <trkpt lat="43.482077" lon="1.588135">
        <ele>174.8</ele>
        <time>2014-03-24T09:39:39Z</time>
      </trkpt>
      <trkpt lat="43.482136" lon="1.588035">
        <ele>174.1</ele>
        <time>2014-03-24T09:39:48Z</time>
      </trkpt>
      <trkpt lat="43.482196" lon="1.587917">
        <ele>173.6</ele>
        <time>2014-03-24T09:39:57Z</time>
      </trkpt>
      <trkpt lat="43.482249" lon="1.587814">
        <ele>173.1</ele>
        <time>2014-03-24T09:40:06Z</time>
      </trkpt>
      <trkpt lat="43.482292" lon="1.587678">
        <ele>173.0</ele>
        <time>2014-03-24T09:40:14Z</time>
      </trkpt>
      <trkpt lat="43.482339" lon="1.587570">
        <ele>173.0</ele>
        <time>2014-03-24T09:40:22Z</time>
      </trkpt>
      <trkpt lat="43.482376" lon="1.587422">
        <ele>172.9</ele>
        <time>2014-03-24T09:40:31Z</time>
      </trkpt>
      <trkpt lat="43.482418" lon="1.587305">
        <ele>172.5</ele>
        <time>2014-03-24T09:40:39Z</time>
      </trkpt>
      <trkpt lat="43.482457" lon="1.587184">
        <ele>172.4</ele>
        <time>2014-03-24T09:40:47Z</time>
      </trkpt>
      <trkpt lat="43.482500" lon="1.587081">
        <ele>172.2</ele>
        <time>2014-03-24T09:40:55Z</time>
      </trkpt>
      <trkpt lat="43.482544" lon="1.586939">
        <ele>171.8</ele>
        <time>2014-03-24T09:41:04Z</time>
      </trkpt>
      <trkpt lat="43.482590" lon="1.586816">
        <ele>171.3</ele>
        <time>2014-03-24T09:41:13Z</time>
      </trkpt>
      <trkpt lat="43.482636" lon="1.586695">
        <ele>171.1</ele>
        <time>2014-03-24T09:41:22Z</time>
      </trkpt>
      <trkpt lat="43.482707" lon="1.586559">
        <ele>170.7</ele>
        <time>2014-03-24T09:41:33Z</time>
      </trkpt>
      <trkpt lat="43.482769" lon="1.586426">
        <ele>170.4</ele>
        <time>2014-03-24T09:41:42Z</time>
      </trkpt>
      <trkpt lat="43.482830" lon="1.586308">
        <ele>170.1</ele>
        <time>2014-03-24T09:41:50Z</time>
      </trkpt>
      <trkpt lat="43.482898" lon="1.586201">
        <ele>169.8</ele>
        <time>2014-03-24T09:41:59Z</time>
      </trkpt>
      <trkpt lat="43.482952" lon="1.586055">
        <ele>169.6</ele>
        <time>2014-03-24T09:42:08Z</time>
      </trkpt>
      <trkpt lat="43.483007" lon="1.585929">
        <ele>169.3</ele>
        <time>2014-03-24T09:42:15Z</time>
      </trkpt>
      <trkpt lat="43.483059" lon="1.585812">
        <ele>168.7</ele>
        <time>2014-03-24T09:42:24Z</time>
      </trkpt>
      <trkpt lat="43.483135" lon="1.585720">
        <ele>168.4</ele>
        <time>2014-03-24T09:43:06Z</time>
      </trkpt>
      <trkpt lat="43.483220" lon="1.585635">
        <ele>168.3</ele>
        <time>2014-03-24T09:43:16Z</time>
      </trkpt>
      <trkpt lat="43.483289" lon="1.585557">
        <ele>168.9</ele>
        <time>2014-03-24T09:43:25Z</time>
      </trkpt>
      <trkpt lat="43.483360" lon="1.585461">
        <ele>169.6</ele>
        <time>2014-03-24T09:43:34Z</time>
      </trkpt>
      <trkpt lat="43.483438" lon="1.585376">
        <ele>170.5</ele>
        <time>2014-03-24T09:43:44Z</time>
      </trkpt>
      <trkpt lat="43.483509" lon="1.585284">
        <ele>171.4</ele>
        <time>2014-03-24T09:43:54Z</time>
      </trkpt>
      <trkpt lat="43.483574" lon="1.585180">
        <ele>172.3</ele>
        <time>2014-03-24T09:44:04Z</time>
      </trkpt>
      <trkpt lat="43.483641" lon="1.585093">
        <ele>172.6</ele>
        <time>2014-03-24T09:44:14Z</time>
      </trkpt>
      <trkpt lat="43.483710" lon="1.585017">
        <ele>173.4</ele>
        <time>2014-03-24T09:44:29Z</time>
      </trkpt>
      <trkpt lat="43.483762" lon="1.584922">
        <ele>174.4</ele>
        <time>2014-03-24T09:45:11Z</time>
      </trkpt>
      <trkpt lat="43.483827" lon="1.584826">
        <ele>175.1</ele>
        <time>2014-03-24T09:45:21Z</time>
      </trkpt>
      <trkpt lat="43.483895" lon="1.584734">
        <ele>175.9</ele>
        <time>2014-03-24T09:46:11Z</time>
      </trkpt>
      <trkpt lat="43.483970" lon="1.584647">
        <ele>176.6</ele>
        <time>2014-03-24T09:46:20Z</time>
      </trkpt>
      <trkpt lat="43.484049" lon="1.584545">
        <ele>177.4</ele>
        <time>2014-03-24T09:46:31Z</time>
      </trkpt>
      <trkpt lat="43.484118" lon="1.584440">
        <ele>178.7</ele>
        <time>2014-03-24T09:46:43Z</time>
      </trkpt>
      <trkpt lat="43.484200" lon="1.584332">
        <ele>180.7</ele>
        <time>2014-03-24T09:46:55Z</time>
      </trkpt>
      <trkpt lat="43.484267" lon="1.584224">
        <ele>181.8</ele>
        <time>2014-03-24T09:47:07Z</time>
      </trkpt>
      <trkpt lat="43.484335" lon="1.584085">
        <ele>183.5</ele>
        <time>2014-03-24T09:47:20Z</time>
      </trkpt>
      <trkpt lat="43.484392" lon="1.583953">
        <ele>185.0</ele>
        <time>2014-03-24T09:47:33Z</time>
      </trkpt>
      <trkpt lat="43.484410" lon="1.583797">
        <ele>186.6</ele>
        <time>2014-03-24T09:47:46Z</time>
      </trkpt>
      <trkpt lat="43.484391" lon="1.583666">
        <ele>187.8</ele>
        <time>2014-03-24T09:47:57Z</time>
      </trkpt>
      <trkpt lat="43.484364" lon="1.583539">
        <ele>189.6</ele>
        <time>2014-03-24T09:48:12Z</time>
      </trkpt>
      <trkpt lat="43.484346" lon="1.583391">
        <ele>191.0</ele>
        <time>2014-03-24T09:48:25Z</time>
      </trkpt>
      <trkpt lat="43.484332" lon="1.583242">
        <ele>192.2</ele>
        <time>2014-03-24T09:48:35Z</time>
      </trkpt>
      <trkpt lat="43.484316" lon="1.583109">
        <ele>192.9</ele>
        <time>2014-03-24T09:48:45Z</time>
      </trkpt>
      <trkpt lat="43.484314" lon="1.582981">
        <ele>193.4</ele>
        <time>2014-03-24T09:48:54Z</time>
      </trkpt>
      <trkpt lat="43.484316" lon="1.582845">
        <ele>194.1</ele>
        <time>2014-03-24T09:49:04Z</time>
      </trkpt>
      <trkpt lat="43.484358" lon="1.582734">
        <ele>194.7</ele>
        <time>2014-03-24T09:49:14Z</time>
      </trkpt>
      <trkpt lat="43.484428" lon="1.582632">
        <ele>195.7</ele>
        <time>2014-03-24T09:49:25Z</time>
      </trkpt>
      <trkpt lat="43.484513" lon="1.582527">
        <ele>196.4</ele>
        <time>2014-03-24T09:49:36Z</time>
      </trkpt>
      <trkpt lat="43.484595" lon="1.582449">
        <ele>197.3</ele>
        <time>2014-03-24T09:49:46Z</time>
      </trkpt>
      <trkpt lat="43.484671" lon="1.582349">
        <ele>198.0</ele>
        <time>2014-03-24T09:49:57Z</time>
      </trkpt>
      <trkpt lat="43.484739" lon="1.582242">
        <ele>198.8</ele>
        <time>2014-03-24T09:50:07Z</time>
      </trkpt>
      <trkpt lat="43.484810" lon="1.582159">
        <ele>199.4</ele>
        <time>2014-03-24T09:50:16Z</time>
      </trkpt>
      <trkpt lat="43.484856" lon="1.582053">
        <ele>200.1</ele>
        <time>2014-03-24T09:50:25Z</time>
      </trkpt>
      <trkpt lat="43.484862" lon="1.581913">
        <ele>200.3</ele>
        <time>2014-03-24T09:50:35Z</time>
      </trkpt>
      <trkpt lat="43.484806" lon="1.581818">
        <ele>200.7</ele>
        <time>2014-03-24T09:50:45Z</time>
      </trkpt>
      <trkpt lat="43.484749" lon="1.581709">
        <ele>201.3</ele>
        <time>2014-03-24T09:50:55Z</time>
      </trkpt>
      <trkpt lat="43.484688" lon="1.581599">
        <ele>202.0</ele>
        <time>2014-03-24T09:51:05Z</time>
      </trkpt>
      <trkpt lat="43.484652" lon="1.581476">
        <ele>202.6</ele>
        <time>2014-03-24T09:51:14Z</time>
      </trkpt>
      <trkpt lat="43.484614" lon="1.581349">
        <ele>203.5</ele>
        <time>2014-03-24T09:51:25Z</time>
      </trkpt>
      <trkpt lat="43.484588" lon="1.581198">
        <ele>204.5</ele>
        <time>2014-03-24T09:51:36Z</time>
      </trkpt>
      <trkpt lat="43.484563" lon="1.581069">
        <ele>205.2</ele>
        <time>2014-03-24T09:51:46Z</time>
      </trkpt>
      <trkpt lat="43.484542" lon="1.580939">
        <ele>206.0</ele>
        <time>2014-03-24T09:51:57Z</time>
      </trkpt>
      <trkpt lat="43.484515" lon="1.580799">
        <ele>207.2</ele>
        <time>2014-03-24T09:52:09Z</time>
      </trkpt>
      <trkpt lat="43.484489" lon="1.580634">
        <ele>208.8</ele>
        <time>2014-03-24T09:52:22Z</time>
      </trkpt>
      <trkpt lat="43.484464" lon="1.580519">
        <ele>209.9</ele>
        <time>2014-03-24T09:52:32Z</time>
      </trkpt>
      <trkpt lat="43.484446" lon="1.580388">
        <ele>211.2</ele>
        <time>2014-03-24T09:52:44Z</time>
      </trkpt>
      <trkpt lat="43.484429" lon="1.580258">
        <ele>212.6</ele>
        <time>2014-03-24T09:52:54Z</time>
      </trkpt>
      <trkpt lat="43.484426" lon="1.580128">
        <ele>213.7</ele>
        <time>2014-03-24T09:53:05Z</time>
      </trkpt>
      <trkpt lat="43.484439" lon="1.579992">
        <ele>214.9</ele>
        <time>2014-03-24T09:53:16Z</time>
      </trkpt>
      <trkpt lat="43.484472" lon="1.579863">
        <ele>215.8</ele>
        <time>2014-03-24T09:53:26Z</time>
      </trkpt>
      <trkpt lat="43.484518" lon="1.579746">
        <ele>216.5</ele>
        <time>2014-03-24T09:53:36Z</time>
      </trkpt>
      <trkpt lat="43.484566" lon="1.579622">
        <ele>217.0</ele>
        <time>2014-03-24T09:53:46Z</time>
      </trkpt>
      <trkpt lat="43.484602" lon="1.579496">
        <ele>217.5</ele>
        <time>2014-03-24T09:53:56Z</time>
      </trkpt>
      <trkpt lat="43.484651" lon="1.579383">
        <ele>218.0</ele>
        <time>2014-03-24T09:54:07Z</time>
      </trkpt>
      <trkpt lat="43.484686" lon="1.579260">
        <ele>218.5</ele>
        <time>2014-03-24T09:54:17Z</time>
      </trkpt>
      <trkpt lat="43.484723" lon="1.579147">
        <ele>219.6</ele>
        <time>2014-03-24T09:54:34Z</time>
      </trkpt>
      <trkpt lat="43.484746" lon="1.579023">
        <ele>220.4</ele>
        <time>2014-03-24T09:54:45Z</time>
      </trkpt>
      <trkpt lat="43.484797" lon="1.578919">
        <ele>221.2</ele>
        <time>2014-03-24T09:54:55Z</time>
      </trkpt>
      <trkpt lat="43.484823" lon="1.578778">
        <ele>221.8</ele>
        <time>2014-03-24T09:55:06Z</time>
      </trkpt>
      <trkpt lat="43.484847" lon="1.578674">
        <ele>222.2</ele>
        <time>2014-03-24T09:55:21Z</time>
      </trkpt>
      <trkpt lat="43.484869" lon="1.578550">
        <ele>222.9</ele>
        <time>2014-03-24T09:55:33Z</time>
      </trkpt>
      <trkpt lat="43.484891" lon="1.578422">
        <ele>223.2</ele>
        <time>2014-03-24T09:55:45Z</time>
      </trkpt>
      <trkpt lat="43.484903" lon="1.578267">
        <ele>223.9</ele>
        <time>2014-03-24T09:55:56Z</time>
      </trkpt>
      <trkpt lat="43.484860" lon="1.578098">
        <ele>224.8</ele>
        <time>2014-03-24T09:56:08Z</time>
      </trkpt>
      <trkpt lat="43.484778" lon="1.578023">
        <ele>225.2</ele>
        <time>2014-03-24T09:56:18Z</time>
      </trkpt>
      <trkpt lat="43.484678" lon="1.577956">
        <ele>225.6</ele>
        <time>2014-03-24T09:56:29Z</time>
      </trkpt>
      <trkpt lat="43.484568" lon="1.577912">
        <ele>225.9</ele>
        <time>2014-03-24T09:56:40Z</time>
      </trkpt>
      <trkpt lat="43.484472" lon="1.577858">
        <ele>226.2</ele>
        <time>2014-03-24T09:56:49Z</time>
      </trkpt>
      <trkpt lat="43.484372" lon="1.577832">
        <ele>226.4</ele>
        <time>2014-03-24T09:56:58Z</time>
      </trkpt>
      <trkpt lat="43.484279" lon="1.577775">
        <ele>226.8</ele>
        <time>2014-03-24T09:57:08Z</time>
      </trkpt>
      <trkpt lat="43.484171" lon="1.577703">
        <ele>227.0</ele>
        <time>2014-03-24T09:57:19Z</time>
      </trkpt>
      <trkpt lat="43.484073" lon="1.577660">
        <ele>227.2</ele>
        <time>2014-03-24T09:57:28Z</time>
      </trkpt>
      <trkpt lat="43.483983" lon="1.577613">
        <ele>227.1</ele>
        <time>2014-03-24T09:57:38Z</time>
      </trkpt>
      <trkpt lat="43.483890" lon="1.577573">
        <ele>226.4</ele>
        <time>2014-03-24T09:57:49Z</time>
      </trkpt>
      <trkpt lat="43.483769" lon="1.577528">
        <ele>225.8</ele>
        <time>2014-03-24T09:58:01Z</time>
      </trkpt>
      <trkpt lat="43.483666" lon="1.577495">
        <ele>225.4</ele>
        <time>2014-03-24T09:58:12Z</time>
      </trkpt>
      <trkpt lat="43.483549" lon="1.577421">
        <ele>225.0</ele>
        <time>2014-03-24T09:58:25Z</time>
      </trkpt>
      <trkpt lat="43.483433" lon="1.577383">
        <ele>224.8</ele>
        <time>2014-03-24T09:58:36Z</time>
      </trkpt>
      <trkpt lat="43.483308" lon="1.577321">
        <ele>224.5</ele>
        <time>2014-03-24T09:58:48Z</time>
      </trkpt>
      <trkpt lat="43.483199" lon="1.577292">
        <ele>223.6</ele>
        <time>2014-03-24T09:59:00Z</time>
      </trkpt>
      <trkpt lat="43.483114" lon="1.577211">
        <ele>222.7</ele>
        <time>2014-03-24T09:59:13Z</time>
      </trkpt>
      <trkpt lat="43.483032" lon="1.577107">
        <ele>221.6</ele>
        <time>2014-03-24T09:59:27Z</time>
      </trkpt>
      <trkpt lat="43.482930" lon="1.576958">
        <ele>220.3</ele>
        <time>2014-03-24T09:59:43Z</time>
      </trkpt>
      <trkpt lat="43.482832" lon="1.576862">
        <ele>219.4</ele>
        <time>2014-03-24T09:59:56Z</time>
      </trkpt>
      <trkpt lat="43.482729" lon="1.576784">
        <ele>217.6</ele>
        <time>2014-03-24T10:01:35Z</time>
      </trkpt>
      <trkpt lat="43.482654" lon="1.576888">
        <ele>219.8</ele>
        <time>2014-03-24T10:01:56Z</time>
      </trkpt>
      <trkpt lat="43.482591" lon="1.576822">
        <ele>219.6</ele>
        <time>2014-03-24T10:02:31Z</time>
      </trkpt>
      <trkpt lat="43.482526" lon="1.576732">
        <ele>219.7</ele>
        <time>2014-03-24T10:02:44Z</time>
        <name>Ancien moulin</name>
      </trkpt>
      <trkpt lat="43.482582" lon="1.576681">
        <ele>220.3</ele>
        <time>2014-03-24T10:03:52Z</time>
      </trkpt>
      <trkpt lat="43.482611" lon="1.576824">
        <ele>220.3</ele>
        <time>2014-03-24T10:04:10Z</time>
      </trkpt>
      <trkpt lat="43.482710" lon="1.576880">
        <ele>220.1</ele>
        <time>2014-03-24T10:04:40Z</time>
      </trkpt>
      <trkpt lat="43.482811" lon="1.576976">
        <ele>221.1</ele>
        <time>2014-03-24T10:04:55Z</time>
      </trkpt>
      <trkpt lat="43.482906" lon="1.577092">
        <ele>222.4</ele>
        <time>2014-03-24T10:05:11Z</time>
      </trkpt>
      <trkpt lat="43.482996" lon="1.577210">
        <ele>222.9</ele>
        <time>2014-03-24T10:05:27Z</time>
      </trkpt>
      <trkpt lat="43.483125" lon="1.577249">
        <ele>223.7</ele>
        <time>2014-03-24T10:05:41Z</time>
      </trkpt>
      <trkpt lat="43.483215" lon="1.577268">
        <ele>223.8</ele>
        <time>2014-03-24T10:05:54Z</time>
      </trkpt>
      <trkpt lat="43.483347" lon="1.577316">
        <ele>224.8</ele>
        <time>2014-03-24T10:06:09Z</time>
      </trkpt>
      <trkpt lat="43.483468" lon="1.577392">
        <ele>225.3</ele>
        <time>2014-03-24T10:06:23Z</time>
      </trkpt>
      <trkpt lat="43.483590" lon="1.577454">
        <ele>225.9</ele>
        <time>2014-03-24T10:06:37Z</time>
      </trkpt>
      <trkpt lat="43.483714" lon="1.577499">
        <ele>226.4</ele>
        <time>2014-03-24T10:06:49Z</time>
      </trkpt>
      <trkpt lat="43.483848" lon="1.577584">
        <ele>226.7</ele>
        <time>2014-03-24T10:07:02Z</time>
      </trkpt>
      <trkpt lat="43.483991" lon="1.577620">
        <ele>227.1</ele>
        <time>2014-03-24T10:07:15Z</time>
      </trkpt>
      <trkpt lat="43.484126" lon="1.577663">
        <ele>228.2</ele>
        <time>2014-03-24T10:07:29Z</time>
      </trkpt>
      <trkpt lat="43.484236" lon="1.577690">
        <ele>228.6</ele>
        <time>2014-03-24T10:07:42Z</time>
      </trkpt>
      <trkpt lat="43.484325" lon="1.577777">
        <ele>228.2</ele>
        <time>2014-03-24T10:07:55Z</time>
      </trkpt>
      <trkpt lat="43.484431" lon="1.577832">
        <ele>228.0</ele>
        <time>2014-03-24T10:08:06Z</time>
      </trkpt>
      <trkpt lat="43.484524" lon="1.577877">
        <ele>227.9</ele>
        <time>2014-03-24T10:08:17Z</time>
      </trkpt>
      <trkpt lat="43.484614" lon="1.577943">
        <ele>227.6</ele>
        <time>2014-03-24T10:08:29Z</time>
      </trkpt>
      <trkpt lat="43.484715" lon="1.578000">
        <ele>227.5</ele>
        <time>2014-03-24T10:08:41Z</time>
      </trkpt>
      <trkpt lat="43.484814" lon="1.578038">
        <ele>227.1</ele>
        <time>2014-03-24T10:08:52Z</time>
      </trkpt>
      <trkpt lat="43.484899" lon="1.578010">
        <ele>226.9</ele>
        <time>2014-03-24T10:09:01Z</time>
      </trkpt>
      <trkpt lat="43.484964" lon="1.577921">
        <ele>226.1</ele>
        <time>2014-03-24T10:09:10Z</time>
      </trkpt>
      <trkpt lat="43.485029" lon="1.577765">
        <ele>225.5</ele>
        <time>2014-03-24T10:09:22Z</time>
      </trkpt>
      <trkpt lat="43.485083" lon="1.577624">
        <ele>224.9</ele>
        <time>2014-03-24T10:09:33Z</time>
      </trkpt>
      <trkpt lat="43.485131" lon="1.577487">
        <ele>224.1</ele>
        <time>2014-03-24T10:09:45Z</time>
      </trkpt>
      <trkpt lat="43.485177" lon="1.577298">
        <ele>223.4</ele>
        <time>2014-03-24T10:09:59Z</time>
      </trkpt>
      <trkpt lat="43.485197" lon="1.577138">
        <ele>222.7</ele>
        <time>2014-03-24T10:10:12Z</time>
      </trkpt>
      <trkpt lat="43.485243" lon="1.576981">
        <ele>222.0</ele>
        <time>2014-03-24T10:10:29Z</time>
      </trkpt>
      <trkpt lat="43.485273" lon="1.576772">
        <ele>221.1</ele>
        <time>2014-03-24T10:10:43Z</time>
      </trkpt>
      <trkpt lat="43.485293" lon="1.576597">
        <ele>220.3</ele>
        <time>2014-03-24T10:10:56Z</time>
      </trkpt>
      <trkpt lat="43.485321" lon="1.576393">
        <ele>219.6</ele>
        <time>2014-03-24T10:11:09Z</time>
      </trkpt>
      <trkpt lat="43.485349" lon="1.576242">
        <ele>218.8</ele>
        <time>2014-03-24T10:11:21Z</time>
      </trkpt>
      <trkpt lat="43.485361" lon="1.576098">
        <ele>218.2</ele>
        <time>2014-03-24T10:11:34Z</time>
      </trkpt>
      <trkpt lat="43.485377" lon="1.575946">
        <ele>217.6</ele>
        <time>2014-03-24T10:11:46Z</time>
      </trkpt>
      <trkpt lat="43.485423" lon="1.575754">
        <ele>216.4</ele>
        <time>2014-03-24T10:12:01Z</time>
      </trkpt>
      <trkpt lat="43.485440" lon="1.575588">
        <ele>215.6</ele>
        <time>2014-03-24T10:12:14Z</time>
      </trkpt>
      <trkpt lat="43.485414" lon="1.575428">
        <ele>215.0</ele>
        <time>2014-03-24T10:12:28Z</time>
      </trkpt>
      <trkpt lat="43.485339" lon="1.575335">
        <ele>215.3</ele>
        <time>2014-03-24T10:12:41Z</time>
      </trkpt>
      <trkpt lat="43.485270" lon="1.575230">
        <ele>216.7</ele>
        <time>2014-03-24T10:12:54Z</time>
      </trkpt>
      <trkpt lat="43.485176" lon="1.575130">
        <ele>217.6</ele>
        <time>2014-03-24T10:13:06Z</time>
      </trkpt>
      <trkpt lat="43.485091" lon="1.575042">
        <ele>217.9</ele>
        <time>2014-03-24T10:13:17Z</time>
      </trkpt>
      <trkpt lat="43.485042" lon="1.574910">
        <ele>217.8</ele>
        <time>2014-03-24T10:13:27Z</time>
      </trkpt>
      <trkpt lat="43.485044" lon="1.574758">
        <ele>217.8</ele>
        <time>2014-03-24T10:13:38Z</time>
      </trkpt>
      <trkpt lat="43.485055" lon="1.574597">
        <ele>216.6</ele>
        <time>2014-03-24T10:13:51Z</time>
      </trkpt>
      <trkpt lat="43.485050" lon="1.574452">
        <ele>215.6</ele>
        <time>2014-03-24T10:14:03Z</time>
      </trkpt>
      <trkpt lat="43.485030" lon="1.574307">
        <ele>214.4</ele>
        <time>2014-03-24T10:14:16Z</time>
      </trkpt>
      <trkpt lat="43.485026" lon="1.574141">
        <ele>212.6</ele>
        <time>2014-03-24T10:14:31Z</time>
      </trkpt>
      <trkpt lat="43.485093" lon="1.574019">
        <ele>212.1</ele>
        <time>2014-03-24T10:14:44Z</time>
      </trkpt>
      <trkpt lat="43.485175" lon="1.573912">
        <ele>211.5</ele>
        <time>2014-03-24T10:14:54Z</time>
      </trkpt>
      <trkpt lat="43.485239" lon="1.573836">
        <ele>211.3</ele>
        <time>2014-03-24T10:15:03Z</time>
      </trkpt>
      <trkpt lat="43.485311" lon="1.573747">
        <ele>210.8</ele>
        <time>2014-03-24T10:15:13Z</time>
      </trkpt>
      <trkpt lat="43.485379" lon="1.573645">
        <ele>209.8</ele>
        <time>2014-03-24T10:15:24Z</time>
      </trkpt>
      <trkpt lat="43.485452" lon="1.573544">
        <ele>208.5</ele>
        <time>2014-03-24T10:15:34Z</time>
      </trkpt>
      <trkpt lat="43.485512" lon="1.573430">
        <ele>207.2</ele>
        <time>2014-03-24T10:15:44Z</time>
      </trkpt>
      <trkpt lat="43.485583" lon="1.573346">
        <ele>206.0</ele>
        <time>2014-03-24T10:15:54Z</time>
      </trkpt>
      <trkpt lat="43.485659" lon="1.573260">
        <ele>204.5</ele>
        <time>2014-03-24T10:16:05Z</time>
      </trkpt>
      <trkpt lat="43.485728" lon="1.573149">
        <ele>203.2</ele>
        <time>2014-03-24T10:16:15Z</time>
      </trkpt>
      <trkpt lat="43.485805" lon="1.573058">
        <ele>201.7</ele>
        <time>2014-03-24T10:16:27Z</time>
      </trkpt>
      <trkpt lat="43.485879" lon="1.572933">
        <ele>200.2</ele>
        <time>2014-03-24T10:16:40Z</time>
      </trkpt>
      <trkpt lat="43.485966" lon="1.572838">
        <ele>198.8</ele>
        <time>2014-03-24T10:16:52Z</time>
      </trkpt>
      <trkpt lat="43.486038" lon="1.572714">
        <ele>197.5</ele>
        <time>2014-03-24T10:17:03Z</time>
      </trkpt>
      <trkpt lat="43.486120" lon="1.572614">
        <ele>196.5</ele>
        <time>2014-03-24T10:17:13Z</time>
      </trkpt>
      <trkpt lat="43.486183" lon="1.572495">
        <ele>195.7</ele>
        <time>2014-03-24T10:17:23Z</time>
      </trkpt>
      <trkpt lat="43.486260" lon="1.572400">
        <ele>194.9</ele>
        <time>2014-03-24T10:17:33Z</time>
      </trkpt>
      <trkpt lat="43.486332" lon="1.572274">
        <ele>193.7</ele>
        <time>2014-03-24T10:17:45Z</time>
      </trkpt>
      <trkpt lat="43.486422" lon="1.572184">
        <ele>192.9</ele>
        <time>2014-03-24T10:18:00Z</time>
      </trkpt>
      <trkpt lat="43.486508" lon="1.572095">
        <ele>191.0</ele>
        <time>2014-03-24T10:18:12Z</time>
      </trkpt>
      <trkpt lat="43.486592" lon="1.572030">
        <ele>189.4</ele>
        <time>2014-03-24T10:18:24Z</time>
      </trkpt>
      <trkpt lat="43.486684" lon="1.571948">
        <ele>187.5</ele>
        <time>2014-03-24T10:18:36Z</time>
      </trkpt>
      <trkpt lat="43.486789" lon="1.571870">
        <ele>186.4</ele>
        <time>2014-03-24T10:18:46Z</time>
      </trkpt>
      <trkpt lat="43.486858" lon="1.571787">
        <ele>185.7</ele>
        <time>2014-03-24T10:18:55Z</time>
      </trkpt>
      <trkpt lat="43.486933" lon="1.571707">
        <ele>185.4</ele>
        <time>2014-03-24T10:19:04Z</time>
      </trkpt>
      <trkpt lat="43.487004" lon="1.571598">
        <ele>185.0</ele>
        <time>2014-03-24T10:19:14Z</time>
      </trkpt>
      <trkpt lat="43.487076" lon="1.571498">
        <ele>184.4</ele>
        <time>2014-03-24T10:19:24Z</time>
      </trkpt>
      <trkpt lat="43.487156" lon="1.571415">
        <ele>183.8</ele>
        <time>2014-03-24T10:19:34Z</time>
      </trkpt>
      <trkpt lat="43.487228" lon="1.571337">
        <ele>183.4</ele>
        <time>2014-03-24T10:19:44Z</time>
      </trkpt>
      <trkpt lat="43.487304" lon="1.571293">
        <ele>183.0</ele>
        <time>2014-03-24T10:19:52Z</time>
      </trkpt>
      <trkpt lat="43.487409" lon="1.571323">
        <ele>182.1</ele>
        <time>2014-03-24T10:20:06Z</time>
      </trkpt>
      <trkpt lat="43.487510" lon="1.571353">
        <ele>181.7</ele>
        <time>2014-03-24T10:20:17Z</time>
      </trkpt>
      <trkpt lat="43.487614" lon="1.571302">
        <ele>181.2</ele>
        <time>2014-03-24T10:20:28Z</time>
      </trkpt>
      <trkpt lat="43.487712" lon="1.571224">
        <ele>181.0</ele>
        <time>2014-03-24T10:20:39Z</time>
      </trkpt>
      <trkpt lat="43.487814" lon="1.571174">
        <ele>180.7</ele>
        <time>2014-03-24T10:20:49Z</time>
      </trkpt>
      <trkpt lat="43.487921" lon="1.571166">
        <ele>180.4</ele>
        <time>2014-03-24T10:21:00Z</time>
      </trkpt>
      <trkpt lat="43.488017" lon="1.571201">
        <ele>180.3</ele>
        <time>2014-03-24T10:21:10Z</time>
      </trkpt>
      <trkpt lat="43.488103" lon="1.571176">
        <ele>180.0</ele>
        <time>2014-03-24T10:21:21Z</time>
      </trkpt>
      <trkpt lat="43.488157" lon="1.571060">
        <ele>179.7</ele>
        <time>2014-03-24T10:21:31Z</time>
      </trkpt>
      <trkpt lat="43.488223" lon="1.570944">
        <ele>179.5</ele>
        <time>2014-03-24T10:21:41Z</time>
      </trkpt>
      <trkpt lat="43.488271" lon="1.570833">
        <ele>178.9</ele>
        <time>2014-03-24T10:21:52Z</time>
      </trkpt>
      <trkpt lat="43.488291" lon="1.570670">
        <ele>178.4</ele>
        <time>2014-03-24T10:22:04Z</time>
      </trkpt>
      <trkpt lat="43.488300" lon="1.570523">
        <ele>178.1</ele>
        <time>2014-03-24T10:22:14Z</time>
      </trkpt>
      <trkpt lat="43.488328" lon="1.570370">
        <ele>177.5</ele>
        <time>2014-03-24T10:22:24Z</time>
      </trkpt>
      <trkpt lat="43.488351" lon="1.570240">
        <ele>177.0</ele>
        <time>2014-03-24T10:22:33Z</time>
      </trkpt>
      <trkpt lat="43.488456" lon="1.570172">
        <ele>176.6</ele>
        <time>2014-03-24T10:22:43Z</time>
      </trkpt>
      <trkpt lat="43.488556" lon="1.570211">
        <ele>176.2</ele>
        <time>2014-03-24T10:22:53Z</time>
      </trkpt>
      <trkpt lat="43.488639" lon="1.570219">
        <ele>175.8</ele>
        <time>2014-03-24T10:23:12Z</time>
      </trkpt>
    </trkseg>
  </trk>
</gpx>

